Observation data for Vigo Park on 01/11/2018      Previous  Date  Next       Current Mesonet Observations  Soil Data  Daily Summary Page  Observations in Plain Language
KVP1 110600Z 23020KT 09/M02 A2948 RMK A01 T00901018  RH  047%=      5-min Rain = 0
KVP1 110601Z 23019KT 09/M02 A2948 RMK A01 T00901017  RH  047%=      5-min Rain = 0
KVP1 110602Z 23019G24KT 09/M02 A2948 RMK A01 T00891018  RH  047%=      5-min Rain = 0
KVP1 110603Z 23018G25KT 09/M02 A2948 RMK A01 T00891018  RH  047%=      5-min Rain = 0
KVP1 110604Z 23019KT 09/M02 A2948 RMK A01 T00881018  RH  047%=      5-min Rain = 0
KVP1 110605Z 23018KT 09/M02 A2948 RMK A01 T00881018  RH  047%=      5-min Rain = 0
KVP1 110606Z 23019KT 09/M02 A2948 RMK A01 T00871018  RH  048%=      5-min Rain = 0
KVP1 110607Z 23019KT 09/M02 A2948 RMK A01 T00881018  RH  047%=      5-min Rain = 0
KVP1 110608Z 23018KT 09/M02 A2948 RMK A01 T00881018  RH  047%=      5-min Rain = 0
KVP1 110609Z 23020KT 09/M02 A2948 RMK A01 T00881018  RH  047%=      5-min Rain = 0
KVP1 110610Z 23020KT 09/M02 A2947 RMK A01 T00881018  RH  047%=      5-min Rain = 0
KVP1 110611Z 23020KT 09/M02 A2947 RMK A01 T00881018  RH  047%=      5-min Rain = 0
KVP1 110612Z 23017KT 09/M02 A2947 RMK A01 T00881018  RH  047%=      5-min Rain = 0
KVP1 110613Z 23018KT 09/M02 A2948 RMK A01 T00881018  RH  047%=      5-min Rain = 0
KVP1 110614Z 23018KT 09/M02 A2947 RMK A01 T00871018  RH  048%=      5-min Rain = 0
KVP1 110615Z 23019KT 09/M02 A2947 RMK A01 T00871018  RH  048%=      5-min Rain = 0
KVP1 110616Z 23020G25KT 09/M02 A2947 RMK A01 T00871018  RH  048%=      5-min Rain = 0
KVP1 110617Z 23019G25KT 09/M02 A2947 RMK A01 T00871018  RH  048%=      5-min Rain = 0
KVP1 110618Z 23019KT 09/M02 A2947 RMK A01 T00881018  RH  047%=      5-min Rain = 0
KVP1 110619Z 23018G23KT 09/M02 A2947 RMK A01 T00881018  RH  047%=      5-min Rain = 0
KVP1 110620Z 23016G21KT 09/M02 A2948 RMK A01 T00881018  RH  047%=      5-min Rain = 0
KVP1 110621Z 24019KT 09/M02 A2948 RMK A01 T00881018  RH  047%=      5-min Rain = 0
KVP1 110622Z 24016KT 09/M02 A2948 RMK A01 T00881018  RH  047%=      5-min Rain = 0
KVP1 110623Z 23017G24KT 09/M02 A2948 RMK A01 T00881018  RH  047%=      5-min Rain = 0
KVP1 110624Z 24018KT 09/M02 A2948 RMK A01 T00891018  RH  047%=      5-min Rain = 0
KVP1 110625Z 23018G23KT 09/M02 A2948 RMK A01 T00901017  RH  047%=      5-min Rain = 0
KVP1 110626Z 24017KT 09/M02 A2948 RMK A01 T00901018  RH  047%=      5-min Rain = 0
KVP1 110627Z 23018KT 09/M02 A2948 RMK A01 T00901018  RH  047%=      5-min Rain = 0
KVP1 110628Z 24020KT 09/M02 A2948 RMK A01 T00911017  RH  047%=      5-min Rain = 0
KVP1 110629Z 24021KT 09/M02 A2948 RMK A01 T00921017  RH  046%=      5-min Rain = 0
KVP1 110630Z 24019G24KT 09/M02 A2948 RMK A01 T00921018  RH  046%=      5-min Rain = 0
KVP1 110631Z 24022KT 09/M02 A2948 RMK A01 T00931017  RH  046%=      5-min Rain = 0
KVP1 110632Z 23021G27KT 09/M02 A2948 RMK A01 T00921018  RH  046%=      5-min Rain = 0
KVP1 110633Z 24020G25KT 09/M02 A2948 RMK A01 T00931018  RH  046%=      5-min Rain = 0
KVP1 110634Z 24019G25KT 09/M02 A2948 RMK A01 T00931017  RH  046%=      5-min Rain = 0
KVP1 110635Z 23019G24KT 09/M02 A2948 RMK A01 T00931018  RH  046%=      5-min Rain = 0
KVP1 110636Z 24021KT 09/M02 A2948 RMK A01 T00931017  RH  046%=      5-min Rain = 0
KVP1 110637Z 24023G28KT 09/M02 A2948 RMK A01 T00931017  RH  046%=      5-min Rain = 0
KVP1 110638Z 24020KT 09/M02 A2948 RMK A01 T00931018  RH  046%=      5-min Rain = 0
KVP1 110639Z 24019KT 09/M02 A2948 RMK A01 T00931018  RH  046%=      5-min Rain = 0
KVP1 110640Z 24017G23KT 09/M02 A2948 RMK A01 T00931017  RH  046%=      5-min Rain = 0
KVP1 110641Z 24021G26KT 09/M02 A2948 RMK A01 T00931017  RH  046%=      5-min Rain = 0
KVP1 110642Z 24020G25KT 09/M02 A2948 RMK A01 T00931017  RH  046%=      5-min Rain = 0
KVP1 110643Z 24019G29KT 09/M02 A2948 RMK A01 T00931017  RH  046%=      5-min Rain = 0
KVP1 110644Z 24020G25KT 09/M02 A2948 RMK A01 T00931018  RH  046%=      5-min Rain = 0
KVP1 110645Z 24020G27KT 09/M02 A2948 RMK A01 T00931017  RH  046%=      5-min Rain = 0
KVP1 110646Z 24020KT 09/M02 A2948 RMK A01 T00921018  RH  046%=      5-min Rain = 0
KVP1 110647Z 24019KT 09/M02 A2948 RMK A01 T00921018  RH  046%=      5-min Rain = 0
KVP1 110648Z 24021KT 09/M02 A2948 RMK A01 T00921018  RH  046%=      5-min Rain = 0
KVP1 110649Z 25016KT 09/M02 A2948 RMK A01 T00921017  RH  046%=      5-min Rain = 0
KVP1 110650Z 24020KT 09/M02 A2948 RMK A01 T00911018  RH  047%=      5-min Rain = 0
KVP1 110651Z 24022KT 09/M02 A2948 RMK A01 T00901018  RH  047%=      5-min Rain = 0
KVP1 110652Z 24019G25KT 09/M02 A2948 RMK A01 T00901018  RH  047%=      5-min Rain = 0
KVP1 110653Z 24020G26KT 09/M02 A2948 RMK A01 T00911018  RH  047%=      5-min Rain = 0
KVP1 110654Z 24020KT 09/M02 A2948 RMK A01 T00901017  RH  047%=      5-min Rain = 0
KVP1 110655Z 24020KT 09/M02 A2948 RMK A01 T00901017  RH  047%=      5-min Rain = 0
KVP1 110656Z 24022KT 09/M02 A2948 RMK A01 T00901018  RH  047%=      5-min Rain = 0
KVP1 110657Z 24018KT 09/M02 A2948 RMK A01 T00901018  RH  047%=      5-min Rain = 0
KVP1 110658Z 25018KT 09/M02 A2948 RMK A01 T00891018  RH  047%=      5-min Rain = 0
KVP1 110659Z 24019KT 09/M02 A2948 RMK A01 T00891018  RH  047%=      5-min Rain = 0
KVP1 110700Z 25018KT 09/M02 A2948 RMK A01 T00881018  RH  047%=      5-min Rain = 0
KVP1 110701Z 24019KT 09/M02 A2948 RMK A01 T00881018  RH  047%=      5-min Rain = 0
KVP1 110702Z 25023G30KT 09/M02 A2948 RMK A01 T00871018  RH  048%=      5-min Rain = 0
KVP1 110703Z 25019KT 09/M02 A2948 RMK A01 T00881018  RH  047%=      5-min Rain = 0
KVP1 110704Z 25021KT 09/M02 A2948 RMK A01 T00891018  RH  047%=      5-min Rain = 0
KVP1 110705Z 25019KT 09/M02 A2948 RMK A01 T00891018  RH  047%=      5-min Rain = 0
KVP1 110706Z 25020G25KT 09/M02 A2949 RMK A01 T00881019  RH  047%=      5-min Rain = 0
KVP1 110707Z 25020KT 09/M02 A2948 RMK A01 T00881019  RH  047%=      5-min Rain = 0
KVP1 110708Z 26020G25KT 09/M02 A2949 RMK A01 T00891019  RH  047%=      5-min Rain = 0
KVP1 110709Z 25023G30KT 09/M02 A2948 RMK A01 T00891019  RH  047%=      5-min Rain = 0
KVP1 110710Z 25020KT 09/M02 A2948 RMK A01 T00891019  RH  047%=      5-min Rain = 0
KVP1 110711Z 25019KT 09/M02 A2949 RMK A01 T00891019  RH  047%=      5-min Rain = 0
KVP1 110712Z 25015KT 09/M02 A2949 RMK A01 T00881019  RH  047%=      5-min Rain = 0
KVP1 110713Z 25017KT 09/M02 A2949 RMK A01 T00871019  RH  047%=      5-min Rain = 0
KVP1 110714Z 25020G25KT 09/M02 A2949 RMK A01 T00861019  RH  048%=      5-min Rain = 0
KVP1 110715Z 25019KT 09/M02 A2949 RMK A01 T00861019  RH  048%=      5-min Rain = 0
KVP1 110716Z 26020KT 09/M02 A2949 RMK A01 T00861019  RH  048%=      5-min Rain = 0
KVP1 110717Z 26018KT 09/M02 A2949 RMK A01 T00861019  RH  048%=      5-min Rain = 0
KVP1 110718Z 26021KT 09/M02 A2949 RMK A01 T00861019  RH  048%=      5-min Rain = 0
KVP1 110719Z 26019KT 09/M02 A2949 RMK A01 T00871018  RH  048%=      5-min Rain = 0
KVP1 110720Z 26019KT 09/M02 A2949 RMK A01 T00871018  RH  048%=      5-min Rain = 0
KVP1 110721Z 26017KT 09/M02 A2949 RMK A01 T00871018  RH  048%=      5-min Rain = 0
KVP1 110722Z 26015KT 09/M02 A2949 RMK A01 T00871018  RH  048%=      5-min Rain = 0
KVP1 110723Z 27019G24KT 09/M02 A2949 RMK A01 T00861017  RH  048%=      5-min Rain = 0
KVP1 110724Z 27018KT 09/M02 A2949 RMK A01 T00871016  RH  048%=      5-min Rain = 0
KVP1 110725Z 28016KT 09/M02 A2949 RMK A01 T00881015  RH  048%=      5-min Rain = 0
KVP1 110726Z 29021G27KT 09/M01 A2949 RMK A01 T00881014  RH  049%=      5-min Rain = 0
KVP1 110727Z 31023G30KT 09/M01 A2949 RMK A01 T00921009  RH  049%=      5-min Rain = 0
KVP1 110728Z 31020G29KT 10/M01 A2949 RMK A01 T00961008  RH  048%=      5-min Rain = 0
KVP1 110729Z 31025KT 10/M01 A2949 RMK A01 T00981009  RH  047%=      5-min Rain = 0
KVP1 110730Z 32024KT 10/M01 A2949 RMK A01 T00991010  RH  047%=      5-min Rain = 0
KVP1 110731Z 32027G32KT 10/M01 A295 RMK A01 T00991011  RH  046%=      5-min Rain = 0
KVP1 110732Z 32024G29KT 10/M01 A295 RMK A01 T00991011  RH  046%=      5-min Rain = 0
KVP1 110733Z 32022KT 10/M01 A295 RMK A01 T00991011  RH  046%=      5-min Rain = 0
KVP1 110734Z 33024KT 10/M01 A295 RMK A01 T00981012  RH  046%=      5-min Rain = 0
KVP1 110735Z 33027G36KT 10/M01 A295 RMK A01 T00981012  RH  046%=      5-min Rain = 0
KVP1 110736Z 32028G35KT 10/M01 A295 RMK A01 T00981014  RH  046%=      5-min Rain = 0
KVP1 110737Z 32028KT 10/M02 A295 RMK A01 T00981015  RH  045%=      5-min Rain = 0
KVP1 110738Z 33032G40KT 10/M02 A295 RMK A01 T00991016  RH  045%=      5-min Rain = 0
KVP1 110739Z 33033G38KT 10/M02 A295 RMK A01 T00991017  RH  044%=      5-min Rain = 0
KVP1 110740Z 33035G41KT 10/M02 A295 RMK A01 T01001017  RH  044%=      5-min Rain = 0
KVP1 110741Z 33029G34KT 10/M02 A2951 RMK A01 T01011018  RH  044%=      5-min Rain = 0
KVP1 110742Z 33025G33KT 10/M02 A2951 RMK A01 T01001018  RH  044%=      5-min Rain = 0
KVP1 110743Z 33027G33KT 10/M02 A2951 RMK A01 T00991018  RH  044%=      5-min Rain = 0
KVP1 110744Z 33033G42KT 10/M02 A2951 RMK A01 T00981017  RH  045%=      5-min Rain = 0
KVP1 110745Z 33037G44KT 10/M02 A2951 RMK A01 T00991015  RH  045%=      5-min Rain = 0
KVP1 110746Z 33036G45KT 10/M01 A2951 RMK A01 T01001014  RH  045%=      5-min Rain = 0
KVP1 110747Z 34034G43KT 10/M01 A2951 RMK A01 T01001014  RH  045%=      5-min Rain = 0
KVP1 110748Z 33036G43KT 10/M01 A2951 RMK A01 T01001014  RH  045%=      5-min Rain = 0
KVP1 110749Z 34033G42KT 10/M01 A2951 RMK A01 T01001014  RH  045%=      5-min Rain = 0
KVP1 110750Z 34039G44KT 10/M01 A2951 RMK A01 T01001013  RH  045%=      5-min Rain = 0
KVP1 110751Z 33036G43KT 10/M01 A2951 RMK A01 T01001013  RH  045%=      5-min Rain = 0
KVP1 110752Z 33031G37KT 10/M01 A2952 RMK A01 T01001013  RH  045%=      5-min Rain = 0
KVP1 110753Z 33037G42KT 10/M01 A2952 RMK A01 T00991013  RH  045%=      5-min Rain = 0
KVP1 110754Z 34037G44KT 10/M01 A2952 RMK A01 T00991014  RH  045%=      5-min Rain = 0
KVP1 110755Z 34041G46KT 10/M01 A2952 RMK A01 T00991013  RH  046%=      5-min Rain = 0
KVP1 110756Z 34033G38KT 10/M01 A2952 RMK A01 T01001012  RH  046%=      5-min Rain = 0
KVP1 110757Z 34030G40KT 10/M01 A2952 RMK A01 T00991013  RH  046%=      5-min Rain = 0
KVP1 110758Z 34033G42KT 10/M01 A2953 RMK A01 T00981014  RH  046%=      5-min Rain = 0
KVP1 110759Z 34036G43KT 10/M01 A2952 RMK A01 T00971013  RH  046%=      5-min Rain = 0
KVP1 110800Z 34030G41KT 10/M01 A2953 RMK A01 T00971013  RH  046%=      5-min Rain = 0
KVP1 110801Z 34033G38KT 10/M01 A2953 RMK A01 T00971013  RH  046%=      5-min Rain = 0
KVP1 110802Z 34032G39KT 10/M01 A2953 RMK A01 T00961013  RH  046%=      5-min Rain = 0
KVP1 110803Z 34028G37KT 10/M01 A2953 RMK A01 T00961013  RH  046%=      5-min Rain = 0
KVP1 110804Z 34033G38KT 10/M01 A2953 RMK A01 T00951013  RH  047%=      5-min Rain = 0
KVP1 110805Z 34031G41KT 10/M01 A2953 RMK A01 T00951013  RH  047%=      5-min Rain = 0
KVP1 110806Z 34028G36KT 10/M01 A2953 RMK A01 T00961013  RH  046%=      5-min Rain = 0
KVP1 110807Z 34030G35KT 10/M01 A2953 RMK A01 T00951014  RH  047%=      5-min Rain = 0
KVP1 110808Z 34027G37KT 10/M01 A2954 RMK A01 T00951014  RH  047%=      5-min Rain = 0
KVP1 110809Z 34030G36KT 09/M01 A2953 RMK A01 T00941013  RH  047%=      5-min Rain = 0
KVP1 110810Z 34032G37KT 09/M01 A2953 RMK A01 T00941013  RH  047%=      5-min Rain = 0
KVP1 110811Z 34030KT 10/M01 A2954 RMK A01 T00951012  RH  047%=      5-min Rain = 0
KVP1 110812Z 34030G37KT 09/M01 A2954 RMK A01 T00941011  RH  048%=      5-min Rain = 0
KVP1 110813Z 34035G40KT 09/M01 A2954 RMK A01 T00941010  RH  048%=      5-min Rain = 0
KVP1 110814Z 34030G38KT 09/M01 A2954 RMK A01 T00931008  RH  049%=      5-min Rain = 0
KVP1 110815Z 34027G36KT 09/M01 A2954 RMK A01 T00931007  RH  049%=      5-min Rain = 0
KVP1 110816Z 34028G35KT 09/M01 A2954 RMK A01 T00931006  RH  050%=      5-min Rain = 0
KVP1 110817Z 34032G39KT 09/M01 A2954 RMK A01 T00931005  RH  050%=      5-min Rain = 0
KVP1 110818Z 34028G35KT 09/M00 A2954 RMK A01 T00931004  RH  051%=      5-min Rain = 0
KVP1 110819Z 34026G37KT 09/M00 A2954 RMK A01 T00921003  RH  051%=      5-min Rain = 0
KVP1 110820Z 34026G31KT 09/M00 A2955 RMK A01 T00921002  RH  052%=      5-min Rain = 0
KVP1 110821Z 34029G37KT 09/M00 A2954 RMK A01 T00921003  RH  052%=      5-min Rain = 0
KVP1 110822Z 34029G34KT 09/M00 A2954 RMK A01 T00921001  RH  052%=      5-min Rain = 0
KVP1 110823Z 34027G32KT 09/M00 A2955 RMK A01 T00921001  RH  052%=      5-min Rain = 0
KVP1 110824Z 34027G34KT 09/M00 A2955 RMK A01 T00911001  RH  052%=      5-min Rain = 0
KVP1 110825Z 34028G34KT 09/00 A2955 RMK A01 T00910000  RH  053%=      5-min Rain = 0
KVP1 110826Z 34025G33KT 09/00 A2955 RMK A01 T00910000  RH  053%=      5-min Rain = 0
KVP1 110827Z 34029G34KT 09/00 A2955 RMK A01 T00910002  RH  054%=      5-min Rain = 0
KVP1 110828Z 34031G38KT 09/00 A2955 RMK A01 T00910003  RH  054%=      5-min Rain = 0
KVP1 110829Z 35031G40KT 09/01 A2955 RMK A01 T00910005  RH  055%=      5-min Rain = 0
KVP1 110830Z 35026G36KT 09/01 A2955 RMK A01 T00910008  RH  056%=      5-min Rain = 0
KVP1 110831Z 34029G38KT 09/01 A2955 RMK A01 T00920010  RH  056%=      5-min Rain = 0
KVP1 110832Z 35025G30KT 09/01 A2955 RMK A01 T00920012  RH  058%=      5-min Rain = 0
KVP1 110833Z 34027G34KT 09/01 A2955 RMK A01 T00910013  RH  058%=      5-min Rain = 0
KVP1 110834Z 35028G35KT 09/01 A2955 RMK A01 T00910013  RH  058%=      5-min Rain = 0
KVP1 110835Z 34029G36KT 09/01 A2955 RMK A01 T00910013  RH  058%=      5-min Rain = 0
KVP1 110836Z 34024G35KT 09/01 A2956 RMK A01 T00910013  RH  058%=      5-min Rain = 0
KVP1 110837Z 34029G35KT 09/01 A2956 RMK A01 T00900013  RH  058%=      5-min Rain = 0
KVP1 110838Z 34028KT 09/01 A2956 RMK A01 T00900013  RH  059%=      5-min Rain = 0
KVP1 110839Z 34025G34KT 09/01 A2956 RMK A01 T00900013  RH  058%=      5-min Rain = 0
KVP1 110840Z 34033G39KT 09/01 A2956 RMK A01 T00910014  RH  059%=      5-min Rain = 0
KVP1 110841Z 34027G37KT 09/02 A2956 RMK A01 T00920015  RH  058%=      5-min Rain = 0
KVP1 110842Z 34025G35KT 09/02 A2956 RMK A01 T00930015  RH  058%=      5-min Rain = 0
KVP1 110843Z 34029G37KT 09/02 A2956 RMK A01 T00930015  RH  058%=      5-min Rain = 0
KVP1 110844Z 34031G42KT 09/02 A2957 RMK A01 T00930017  RH  059%=      5-min Rain = 0
KVP1 110845Z 34035G41KT 09/02 A2957 RMK A01 T00940019  RH  060%=      5-min Rain = 0
KVP1 110846Z 34029G40KT 10/02 A2957 RMK A01 T00950020  RH  060%=      5-min Rain = 0
KVP1 110847Z 34031G39KT 10/02 A2957 RMK A01 T00950021  RH  060%=      5-min Rain = 0
KVP1 110848Z 34028KT 10/02 A2957 RMK A01 T00950021  RH  060%=      5-min Rain = 0
KVP1 110849Z 34031G38KT 10/02 A2957 RMK A01 T00950023  RH  061%=      5-min Rain = 0
KVP1 110850Z 34031G37KT 10/02 A2957 RMK A01 T00950024  RH  061%=      5-min Rain = 0
KVP1 110851Z 35033G43KT 09/03 A2957 RMK A01 T00940027  RH  063%=      5-min Rain = 0
KVP1 110852Z 34032G39KT 09/03 A2957 RMK A01 T00940028  RH  064%=      5-min Rain = 0
KVP1 110853Z 35026G36KT 09/03 A2957 RMK A01 T00930028  RH  064%=      5-min Rain = 0
KVP1 110854Z 34030G35KT 09/03 A2958 RMK A01 T00930028  RH  064%=      5-min Rain = 0
KVP1 110855Z 34026G31KT 09/03 A2958 RMK A01 T00920028  RH  064%=      5-min Rain = 0
KVP1 110856Z 34024G32KT 09/03 A2958 RMK A01 T00910027  RH  064%=      5-min Rain = 0
KVP1 110857Z 34032G38KT 09/03 A2957 RMK A01 T00900025  RH  064%=      5-min Rain = 0
KVP1 110858Z 34029G35KT 09/02 A2958 RMK A01 T00890024  RH  064%=      5-min Rain = 0
KVP1 110859Z 34030G35KT 09/02 A2958 RMK A01 T00880023  RH  064%=      5-min Rain = 0
KVP1 110900Z 34031G38KT 09/02 A2958 RMK A01 T00870023  RH  064%=      5-min Rain = 0
KVP1 110901Z 34034G43KT 09/02 A2958 RMK A01 T00860023  RH  064%=      5-min Rain = 0
KVP1 110902Z 34035G42KT 09/02 A2958 RMK A01 T00860023  RH  065%=      5-min Rain = 0
KVP1 110903Z 34031G39KT 09/02 A2958 RMK A01 T00850023  RH  065%=      5-min Rain = 0
KVP1 110904Z 35028G33KT 08/02 A2959 RMK A01 T00840024  RH  066%=      5-min Rain = 0
KVP1 110905Z 34031G36KT 08/02 A2959 RMK A01 T00840024  RH  066%=      5-min Rain = 0
KVP1 110906Z 35031G36KT 08/02 A2959 RMK A01 T00840024  RH  066%=      5-min Rain = 0
KVP1 110907Z 34027G33KT 08/02 A296 RMK A01 T00830024  RH  067%=      5-min Rain = 0
KVP1 110908Z 34035G41KT 08/03 A296 RMK A01 T00830025  RH  067%=      5-min Rain = 0
KVP1 110909Z 34032G38KT 08/02 A296 RMK A01 T00820024  RH  067%=      5-min Rain = 0
KVP1 110910Z 35030G38KT 08/02 A296 RMK A01 T00810024  RH  067%=      5-min Rain = 0
KVP1 110911Z 35035G42KT 08/02 A296 RMK A01 T00810024  RH  067%=      5-min Rain = 0
KVP1 110912Z 35033G42KT 08/02 A2961 RMK A01 T00800023  RH  067%=      5-min Rain = 0
KVP1 110913Z 35026G33KT 08/02 A2961 RMK A01 T00800023  RH  067%=      5-min Rain = 0
KVP1 110914Z 34029G34KT 08/02 A2961 RMK A01 T00790022  RH  067%=      5-min Rain = 0
KVP1 110915Z 34032G38KT 08/02 A2961 RMK A01 T00790021  RH  067%=      5-min Rain = 0
KVP1 110916Z 34025KT 08/02 A2961 RMK A01 T00790020  RH  067%=      5-min Rain = 0
KVP1 110917Z 34029G35KT 08/02 A2961 RMK A01 T00770018  RH  066%=      5-min Rain = 0
KVP1 110918Z 34027G33KT 08/02 A2961 RMK A01 T00750015  RH  066%=      5-min Rain = 0
KVP1 110919Z 34028G37KT 07/01 A2961 RMK A01 T00730014  RH  066%=      5-min Rain = 0
KVP1 110920Z 34030G37KT 07/01 A2961 RMK A01 T00720014  RH  067%=      5-min Rain = 0
KVP1 110921Z 34030KT 07/01 A2961 RMK A01 T00710014  RH  067%=      5-min Rain = 0
KVP1 110922Z 34033G41KT 07/01 A2962 RMK A01 T00700014  RH  067%=      5-min Rain = 0
KVP1 110923Z 34035G45KT 07/01 A2962 RMK A01 T00700014  RH  068%=      5-min Rain = 0
KVP1 110924Z 34033KT 07/01 A2962 RMK A01 T00690014  RH  068%=      5-min Rain = 0
KVP1 110925Z 34036G44KT 07/01 A2961 RMK A01 T00690014  RH  068%=      5-min Rain = 0
KVP1 110926Z 35036G45KT 07/01 A2962 RMK A01 T00680014  RH  069%=      5-min Rain = 0
KVP1 110927Z 34036G44KT 07/01 A2962 RMK A01 T00670014  RH  069%=      5-min Rain = 0
KVP1 110928Z 34034G40KT 07/01 A2962 RMK A01 T00670014  RH  069%=      5-min Rain = 0
KVP1 110929Z 35030G41KT 07/01 A2962 RMK A01 T00660014  RH  069%=      5-min Rain = 0
KVP1 110930Z 34034G41KT 07/01 A2962 RMK A01 T00660014  RH  069%=      5-min Rain = 0
KVP1 110931Z 35029G40KT 07/01 A2962 RMK A01 T00650014  RH  070%=      5-min Rain = 0
KVP1 110932Z 34030G38KT 06/01 A2962 RMK A01 T00640014  RH  070%=      5-min Rain = 0
KVP1 110933Z 34033G40KT 06/01 A2962 RMK A01 T00620012  RH  070%=      5-min Rain = 0
KVP1 110934Z 34032G38KT 06/01 A2962 RMK A01 T00620012  RH  070%=      5-min Rain = 0
KVP1 110935Z 34029G35KT 06/01 A2963 RMK A01 T00610012  RH  071%=      5-min Rain = 0
KVP1 110936Z 35036G42KT 06/01 A2963 RMK A01 T00600011  RH  071%=      5-min Rain = 0
KVP1 110937Z 35033G42KT 06/01 A2963 RMK A01 T00590011  RH  071%=      5-min Rain = 0
KVP1 110938Z 34034G41KT 06/01 A2963 RMK A01 T00590011  RH  071%=      5-min Rain = 0
KVP1 110939Z 35031G40KT 06/01 A2963 RMK A01 T00590010  RH  071%=      5-min Rain = 0
KVP1 110940Z 35030G36KT 06/01 A2963 RMK A01 T00580010  RH  071%=      5-min Rain = 0
KVP1 110941Z 35024G29KT 06/01 A2963 RMK A01 T00570009  RH  071%=      5-min Rain = 0
KVP1 110942Z 35024G29KT 06/01 A2964 RMK A01 T00570009  RH  071%=      5-min Rain = 0
KVP1 110943Z 34027G36KT 06/01 A2964 RMK A01 T00560009  RH  072%=      5-min Rain = 0
KVP1 110944Z 35028G34KT 06/01 A2964 RMK A01 T00550009  RH  072%=      5-min Rain = 0
KVP1 110945Z 34030G36KT 06/01 A2964 RMK A01 T00550009  RH  072%=      5-min Rain = 0
KVP1 110946Z 35027G35KT 06/01 A2964 RMK A01 T00550008  RH  072%=      5-min Rain = 0
KVP1 110947Z 34023KT 05/01 A2964 RMK A01 T00540008  RH  072%=      5-min Rain = 0
KVP1 110948Z 35027G32KT 05/01 A2965 RMK A01 T00530008  RH  073%=      5-min Rain = 0
KVP1 110949Z 35023G28KT 05/01 A2965 RMK A01 T00530008  RH  073%=      5-min Rain = 0
KVP1 110950Z 35024G29KT 05/01 A2965 RMK A01 T00530008  RH  073%=      5-min Rain = 0
KVP1 110951Z 35023G30KT 05/01 A2965 RMK A01 T00520008  RH  073%=      5-min Rain = 0
KVP1 110952Z 35024G32KT 05/01 A2965 RMK A01 T00520008  RH  073%=      5-min Rain = 0
KVP1 110953Z 36025G33KT 05/01 A2965 RMK A01 T00510008  RH  074%=      5-min Rain = 0
KVP1 110954Z 35029G39KT 05/01 A2965 RMK A01 T00500007  RH  074%=      5-min Rain = 0
KVP1 110955Z 35026G31KT 05/01 A2965 RMK A01 T00490007  RH  074%=      5-min Rain = 0
KVP1 110956Z 36026G33KT 05/01 A2965 RMK A01 T00480007  RH  074%=      5-min Rain = 0
KVP1 110957Z 35026G31KT 05/01 A2966 RMK A01 T00470006  RH  075%=      5-min Rain = 0
KVP1 110958Z 35024G32KT 05/01 A2966 RMK A01 T00470006  RH  075%=      5-min Rain = 0
KVP1 110959Z 34024G29KT 05/01 A2966 RMK A01 T00460006  RH  075%=      5-min Rain = 0
KVP1 111000Z 35029G34KT 05/01 A2966 RMK A01 T00450005  RH  075%=      5-min Rain = 0
KVP1 111001Z 35033G45KT 04/00 A2966 RMK A01 T00440004  RH  075%=      5-min Rain = 0
KVP1 111002Z 35033G42KT 04/00 A2966 RMK A01 T00420002  RH  075%=      5-min Rain = 0
KVP1 111003Z 35027G33KT 04/00 A2966 RMK A01 T00410001  RH  075%=      5-min Rain = 0
KVP1 111004Z 35029KT 04/00 A2966 RMK A01 T00400000  RH  075%=      5-min Rain = 0
KVP1 111005Z 35022KT 04/00 A2967 RMK A01 T00390000  RH  076%=      5-min Rain = 0
KVP1 111006Z 35028G34KT 04/M00 A2967 RMK A01 T00381001  RH  076%=      5-min Rain = 0
KVP1 111007Z 34027G36KT 04/M00 A2967 RMK A01 T00371001  RH  076%=      5-min Rain = 0
KVP1 111008Z 35031G40KT 04/M00 A2967 RMK A01 T00361003  RH  076%=      5-min Rain = 0
KVP1 111009Z 35035G40KT 03/M01 A2967 RMK A01 T00341005  RH  075%=      5-min Rain = 0
KVP1 111010Z 35026G38KT 03/M01 A2967 RMK A01 T00331006  RH  075%=      5-min Rain = 0
KVP1 111011Z 35031G37KT 03/M01 A2968 RMK A01 T00321007  RH  076%=      5-min Rain = 0
KVP1 111012Z 35030G35KT 03/M01 A2968 RMK A01 T00311007  RH  076%=      5-min Rain = 0
KVP1 111013Z 34029G35KT 03/M01 A2968 RMK A01 T00301008  RH  076%=      5-min Rain = 0
KVP1 111014Z 35030KT 03/M01 A2968 RMK A01 T00291008  RH  076%=      5-min Rain = 0
KVP1 111015Z 35029G35KT 03/M01 A2968 RMK A01 T00291008  RH  077%=      5-min Rain = 0
KVP1 111016Z 36029G34KT 03/M01 A2968 RMK A01 T00291008  RH  077%=      5-min Rain = 0
KVP1 111017Z 35030G39KT 03/M01 A2968 RMK A01 T00271010  RH  076%=      5-min Rain = 0
KVP1 111018Z 36029KT 03/M01 A2969 RMK A01 T00261011  RH  076%=      5-min Rain = 0
KVP1 111019Z 35025G31KT 03/M01 A2969 RMK A01 T00251012  RH  076%=      5-min Rain = 0
KVP1 111020Z 35023G29KT 02/M01 A2969 RMK A01 T00241013  RH  077%=      5-min Rain = 0
KVP1 111021Z 36027G35KT 02/M01 A2969 RMK A01 T00231013  RH  077%=      5-min Rain = 0
KVP1 111022Z 00026G34KT 02/M01 A2969 RMK A01 T00231014  RH  077%=      5-min Rain = 0
KVP1 111023Z 35023G28KT 02/M02 A2969 RMK A01 T00221015  RH  077%=      5-min Rain = 0
KVP1 111024Z 35026G31KT 02/M02 A2969 RMK A01 T00211015  RH  077%=      5-min Rain = 0
KVP1 111025Z 36028G36KT 02/M02 A2969 RMK A01 T00211015  RH  077%=      5-min Rain = 0
KVP1 111026Z 35030G35KT 02/M02 A297 RMK A01 T00201016  RH  077%=      5-min Rain = 0
KVP1 111027Z 35028G33KT 02/M02 A297 RMK A01 T00201016  RH  077%=      5-min Rain = 0
KVP1 111028Z 35025G32KT 02/M02 A297 RMK A01 T00191016  RH  077%=      5-min Rain = 0
KVP1 111029Z 35024G29KT 02/M02 A297 RMK A01 T00191016  RH  078%=      5-min Rain = 0
KVP1 111030Z 35023G29KT 02/M02 A297 RMK A01 T00191016  RH  078%=      5-min Rain = 0
KVP1 111031Z 35023G29KT 02/M02 A297 RMK A01 T00191016  RH  078%=      5-min Rain = 0
KVP1 111032Z 34024G30KT 02/M02 A297 RMK A01 T00191016  RH  078%=      5-min Rain = 0
KVP1 111033Z 34026G32KT 02/M02 A297 RMK A01 T00181016  RH  078%=      5-min Rain = 0
KVP1 111034Z 35024G30KT 02/M02 A297 RMK A01 T00181016  RH  078%=      5-min Rain = 0
KVP1 111035Z 35027KT 02/M02 A297 RMK A01 T00181015  RH  078%=      5-min Rain = 0
KVP1 111036Z 35026G33KT 02/M02 A297 RMK A01 T00171016  RH  078%=      5-min Rain = 0
KVP1 111037Z 34025G34KT 02/M02 A2971 RMK A01 T00171017  RH  078%=      5-min Rain = 0
KVP1 111038Z 35028G33KT 02/M02 A2971 RMK A01 T00171018  RH  078%=      5-min Rain = 0
KVP1 111039Z 34030KT 02/M02 A2971 RMK A01 T00161019  RH  078%=      5-min Rain = 0
KVP1 111040Z 35029G37KT 02/M02 A2971 RMK A01 T00161019  RH  078%=      5-min Rain = 0
KVP1 111041Z 34030KT 02/M02 A2971 RMK A01 T00161019  RH  077%=      5-min Rain = 0
KVP1 111042Z 35025G35KT 02/M02 A2971 RMK A01 T00161019  RH  077%=      5-min Rain = 0
KVP1 111043Z 35028KT 02/M02 A2971 RMK A01 T00161019  RH  078%=      5-min Rain = 0
KVP1 111044Z 36022G29KT 02/M02 A2971 RMK A01 T00161019  RH  078%=      5-min Rain = 0
KVP1 111045Z 35023G31KT 02/M02 A2972 RMK A01 T00151020  RH  078%=      5-min Rain = 0
KVP1 111046Z 35030KT 02/M02 A2972 RMK A01 T00151019  RH  078%=      5-min Rain = 0
KVP1 111047Z 35026G37KT 02/M02 A2972 RMK A01 T00151019  RH  078%=      5-min Rain = 0
KVP1 111048Z 34026G33KT 02/M02 A2972 RMK A01 T00151019  RH  078%=      5-min Rain = 0
KVP1 111049Z 35026G33KT 02/M02 A2972 RMK A01 T00151019  RH  078%=      5-min Rain = 0
KVP1 111050Z 35030G37KT 02/M02 A2972 RMK A01 T00151019  RH  078%=      5-min Rain = 0
KVP1 111051Z 35035G41KT 02/M02 A2972 RMK A01 T00151019  RH  078%=      5-min Rain = 0
KVP1 111052Z 36029G36KT 02/M02 A2973 RMK A01 T00151019  RH  078%=      5-min Rain = 0
KVP1 111053Z 35031G36KT 02/M02 A2973 RMK A01 T00151018  RH  078%=      5-min Rain = 0
KVP1 111054Z 35027G36KT 02/M02 A2973 RMK A01 T00151018  RH  078%=      5-min Rain = 0
KVP1 111055Z 35028G36KT 02/M02 A2973 RMK A01 T00161018  RH  078%=      5-min Rain = 0
KVP1 111056Z 35028G35KT 02/M02 A2973 RMK A01 T00161018  RH  078%=      5-min Rain = 0
KVP1 111057Z 35028G36KT 02/M02 A2973 RMK A01 T00161017  RH  079%=      5-min Rain = 0
KVP1 111058Z 35024G30KT 02/M02 A2973 RMK A01 T00161017  RH  079%=      5-min Rain = 0
KVP1 111059Z 34027G35KT 02/M02 A2973 RMK A01 T00161017  RH  079%=      5-min Rain = 0
KVP1 111100Z 34028G39KT 02/M02 A2973 RMK A01 T00151019  RH  078%=      5-min Rain = 0
KVP1 111101Z 34034KT 01/M02 A2974 RMK A01 T00141021  RH  078%=      5-min Rain = 0
KVP1 111102Z 34031G36KT 01/M02 A2974 RMK A01 T00121023  RH  077%=      5-min Rain = 0
KVP1 111103Z 34029G34KT 01/M02 A2974 RMK A01 T00111024  RH  077%=      5-min Rain = 0
KVP1 111104Z 34034G40KT 01/M03 A2974 RMK A01 T00101025  RH  078%=      5-min Rain = 0
KVP1 111105Z 34030G35KT 01/M03 A2974 RMK A01 T00091025  RH  078%=      5-min Rain = 0
KVP1 111106Z 34027G33KT 01/M03 A2975 RMK A01 T00091026  RH  078%=      5-min Rain = 0
KVP1 111107Z 35030G36KT 01/M03 A2975 RMK A01 T00091025  RH  078%=      5-min Rain = 0
KVP1 111108Z 35034G44KT 01/M03 A2975 RMK A01 T00091026  RH  077%=      5-min Rain = 0
KVP1 111109Z 34029G36KT 01/M03 A2975 RMK A01 T00081028  RH  077%=      5-min Rain = 0
KVP1 111110Z 35029G42KT 01/M03 A2975 RMK A01 T00081029  RH  076%=      5-min Rain = 0
KVP1 111111Z 35029G44KT 01/M03 A2976 RMK A01 T00081030  RH  076%=      5-min Rain = 0
KVP1 111112Z 35034G41KT 01/M03 A2976 RMK A01 T00071031  RH  075%=      5-min Rain = 0
KVP1 111113Z 35032G41KT 01/M03 A2976 RMK A01 T00061033  RH  075%=      5-min Rain = 0
KVP1 111114Z 36028G34KT 01/M03 A2976 RMK A01 T00061033  RH  075%=      5-min Rain = 0
KVP1 111115Z 35032G41KT 01/M03 A2976 RMK A01 T00061033  RH  075%=      5-min Rain = 0
KVP1 111116Z 35028G33KT 01/M03 A2977 RMK A01 T00061033  RH  075%=      5-min Rain = 0
KVP1 111117Z 35020G25KT 01/M03 A2977 RMK A01 T00061033  RH  075%=      5-min Rain = 0
KVP1 111118Z 35031KT 01/M03 A2977 RMK A01 T00061033  RH  075%=      5-min Rain = 0
KVP1 111119Z 35028G35KT 01/M03 A2977 RMK A01 T00061033  RH  075%=      5-min Rain = 0
KVP1 111120Z 35021G28KT 01/M03 A2977 RMK A01 T00061033  RH  075%=      5-min Rain = 0
KVP1 111121Z 35021G27KT 01/M03 A2978 RMK A01 T00061033  RH  075%=      5-min Rain = 0
KVP1 111122Z 35027G33KT 01/M03 A2978 RMK A01 T00061033  RH  075%=      5-min Rain = 0
KVP1 111123Z 34027G35KT 01/M03 A2978 RMK A01 T00061033  RH  075%=      5-min Rain = 0
KVP1 111124Z 35023G28KT 01/M03 A2978 RMK A01 T00061032  RH  075%=      5-min Rain = 0
KVP1 111125Z 35025G32KT 01/M03 A2978 RMK A01 T00061032  RH  076%=      5-min Rain = 0
KVP1 111126Z 35024KT 01/M03 A2978 RMK A01 T00061032  RH  076%=      5-min Rain = 0
KVP1 111127Z 35020G28KT 01/M03 A2979 RMK A01 T00061032  RH  076%=      5-min Rain = 0
KVP1 111128Z 35024G31KT 01/M03 A2979 RMK A01 T00051032  RH  076%=      5-min Rain = 0
KVP1 111129Z 35022G28KT 01/M03 A2979 RMK A01 T00051032  RH  076%=      5-min Rain = 0
KVP1 111130Z 35021G28KT 01/M03 A2979 RMK A01 T00051032  RH  076%=      5-min Rain = 0
KVP1 111131Z 34024KT 01/M03 A2979 RMK A01 T00051033  RH  076%=      5-min Rain = 0
KVP1 111132Z 34021G27KT 01/M03 A2979 RMK A01 T00051032  RH  076%=      5-min Rain = 0
KVP1 111133Z 34024G30KT 01/M03 A2979 RMK A01 T00051032  RH  076%=      5-min Rain = 0
KVP1 111134Z 34026G33KT 01/M03 A2979 RMK A01 T00051033  RH  076%=      5-min Rain = 0
KVP1 111135Z 34025G34KT 01/M03 A2979 RMK A01 T00051034  RH  075%=      5-min Rain = 0
KVP1 111136Z 34023G28KT 01/M03 A298 RMK A01 T00051034  RH  075%=      5-min Rain = 0
KVP1 111137Z 34019G25KT 01/M03 A298 RMK A01 T00051034  RH  075%=      5-min Rain = 0
KVP1 111138Z 33020G26KT 01/M03 A298 RMK A01 T00051034  RH  075%=      5-min Rain = 0
KVP1 111139Z 34028G41KT 01/M04 A298 RMK A01 T00051035  RH  075%=      5-min Rain = 0
KVP1 111140Z 34029G37KT 00/M04 A298 RMK A01 T00041037  RH  074%=      5-min Rain = 0
KVP1 111141Z 34025G31KT 00/M04 A298 RMK A01 T00031039  RH  074%=      5-min Rain = 0
KVP1 111142Z 34028G36KT 00/M04 A298 RMK A01 T00021040  RH  073%=      5-min Rain = 0
KVP1 111143Z 34030G35KT 00/M04 A298 RMK A01 T00021041  RH  073%=      5-min Rain = 0
KVP1 111144Z 35029G35KT 00/M04 A298 RMK A01 T00011042  RH  073%=      5-min Rain = 0
KVP1 111145Z 34032G40KT 00/M04 A2981 RMK A01 T00011043  RH  072%=      5-min Rain = 0
KVP1 111146Z 34028G35KT 00/M04 A2981 RMK A01 T00011044  RH  072%=      5-min Rain = 0
KVP1 111147Z 34028G36KT 00/05 A2981 RMK A01 T00000-45  RH  071%=      5-min Rain = 0
KVP1 111148Z 34027G33KT 00/05 A2981 RMK A01 T00-00-46  RH  071%=      5-min Rain = 0
KVP1 111149Z 34027G34KT 00/05 A2981 RMK A01 T00000-46  RH  071%=      5-min Rain = 0
KVP1 111150Z 35023G29KT 00/05 A2981 RMK A01 T00000-46  RH  071%=      5-min Rain = 0
KVP1 111151Z 35025G30KT 00/05 A2981 RMK A01 T00-00-47  RH  071%=      5-min Rain = 0
KVP1 111152Z 34026G33KT 00/05 A2982 RMK A01 T00-00-47  RH  071%=      5-min Rain = 0
KVP1 111153Z 34026G33KT M00/M05 A2982 RMK A01 T10011047  RH  071%=      5-min Rain = 0
KVP1 111154Z 35025G32KT M00/M05 A2982 RMK A01 T10011048  RH  071%=      5-min Rain = 0
KVP1 111155Z 34029G38KT M00/M05 A2982 RMK A01 T10011048  RH  071%=      5-min Rain = 0
KVP1 111156Z 35027G34KT M00/M05 A2982 RMK A01 T10011048  RH  071%=      5-min Rain = 0
KVP1 111157Z 35027G35KT M00/M05 A2982 RMK A01 T10011049  RH  070%=      5-min Rain = 0
KVP1 111158Z 35029G36KT M00/M05 A2982 RMK A01 T10021050  RH  070%=      5-min Rain = 0
KVP1 111159Z 35022G27KT M00/M05 A2983 RMK A01 T10021050  RH  070%=      5-min Rain = 0
KVP1 111200Z 34024G30KT M00/M05 A2983 RMK A01 T10021050  RH  070%=      5-min Rain = 0
KVP1 111201Z 35023G32KT M00/M05 A2983 RMK A01 T10011049  RH  070%=      5-min Rain = 0
KVP1 111202Z 35023KT M00/M05 A2983 RMK A01 T10021049  RH  070%=      5-min Rain = 0
KVP1 111203Z 35028G36KT M00/M05 A2983 RMK A01 T10021050  RH  070%=      5-min Rain = 0
KVP1 111204Z 34027G34KT M00/M05 A2983 RMK A01 T10021050  RH  070%=      5-min Rain = 0
KVP1 111205Z 35028G33KT M00/M05 A2983 RMK A01 T10021051  RH  070%=      5-min Rain = 0
KVP1 111206Z 34030G38KT M00/M05 A2983 RMK A01 T10031052  RH  070%=      5-min Rain = 0
KVP1 111207Z 35031G40KT M00/M05 A2983 RMK A01 T10031051  RH  070%=      5-min Rain = 0
KVP1 111208Z 35028G36KT M00/M05 A2983 RMK A01 T10031051  RH  070%=      5-min Rain = 0
KVP1 111209Z 35028G34KT M00/M05 A2983 RMK A01 T10031051  RH  070%=      5-min Rain = 0
KVP1 111210Z 35029KT M00/M05 A2983 RMK A01 T10031051  RH  070%=      5-min Rain = 0
KVP1 111211Z 35027G37KT M00/M05 A2983 RMK A01 T10031051  RH  070%=      5-min Rain = 0
KVP1 111212Z 35025G33KT M00/M05 A2983 RMK A01 T10021050  RH  070%=      5-min Rain = 0
KVP1 111213Z 34027G32KT M00/M05 A2983 RMK A01 T10031050  RH  070%=      5-min Rain = 0
KVP1 111214Z 34023KT M00/M05 A2983 RMK A01 T10041051  RH  071%=      5-min Rain = 0
KVP1 111215Z 34021KT M01/M05 A2983 RMK A01 T10051051  RH  071%=      5-min Rain = 0
KVP1 111216Z 34019G26KT M01/M05 A2983 RMK A01 T10051051  RH  071%=      5-min Rain = 0
KVP1 111217Z 34019G26KT M01/M05 A2984 RMK A01 T10061050  RH  072%=      5-min Rain = 0
KVP1 111218Z 34026KT M01/M05 A2983 RMK A01 T10071050  RH  073%=      5-min Rain = 0
KVP1 111219Z 34024G29KT M01/M05 A2984 RMK A01 T10071048  RH  073%=      5-min Rain = 0
KVP1 111220Z 34025G31KT M01/M05 A2984 RMK A01 T10071049  RH  073%=      5-min Rain = 0
KVP1 111221Z 35026G34KT M01/M05 A2984 RMK A01 T10081050  RH  073%=      5-min Rain = 0
KVP1 111222Z 35027G32KT M01/M05 A2984 RMK A01 T10081050  RH  073%=      5-min Rain = 0
KVP1 111223Z 35024G30KT M01/M05 A2984 RMK A01 T10091051  RH  073%=      5-min Rain = 0
KVP1 111224Z 34025G35KT M01/M05 A2985 RMK A01 T10091051  RH  073%=      5-min Rain = 0
KVP1 111225Z 34031G37KT M01/M05 A2985 RMK A01 T10091052  RH  073%=      5-min Rain = 0
KVP1 111226Z 35028G39KT M01/M05 A2985 RMK A01 T10111054  RH  072%=      5-min Rain = 0
KVP1 111227Z 35029G35KT M01/M06 A2985 RMK A01 T10111055  RH  072%=      5-min Rain = 0
KVP1 111228Z 35029G34KT M01/M06 A2985 RMK A01 T10131057  RH  072%=      5-min Rain = 0
KVP1 111229Z 34026G33KT M01/M06 A2985 RMK A01 T10141058  RH  072%=      5-min Rain = 0
KVP1 111230Z 35032G40KT M01/M06 A2985 RMK A01 T10141058  RH  072%=      5-min Rain = 0
KVP1 111231Z 35024G33KT M02/M06 A2985 RMK A01 T10151058  RH  072%=      5-min Rain = 0
KVP1 111232Z 35030G35KT M02/M06 A2985 RMK A01 T10151058  RH  072%=      5-min Rain = 0
KVP1 111233Z 35028G35KT M02/M06 A2985 RMK A01 T10151058  RH  072%=      5-min Rain = 0
KVP1 111234Z 35026G33KT M02/M06 A2985 RMK A01 T10151058  RH  072%=      5-min Rain = 0
KVP1 111235Z 35022G31KT M02/M06 A2985 RMK A01 T10151058  RH  072%=      5-min Rain = 0
KVP1 111236Z 35026KT M02/M06 A2986 RMK A01 T10151058  RH  073%=      5-min Rain = 0
KVP1 111237Z 35022G29KT M02/M06 A2986 RMK A01 T10151057  RH  073%=      5-min Rain = 0
KVP1 111238Z 35026G31KT M02/M06 A2986 RMK A01 T10161058  RH  073%=      5-min Rain = 0
KVP1 111239Z 34027KT M02/M06 A2986 RMK A01 T10161057  RH  074%=      5-min Rain = 0
KVP1 111240Z 34025G32KT M02/M06 A2986 RMK A01 T10161057  RH  074%=      5-min Rain = 0
KVP1 111241Z 34022KT M02/M06 A2986 RMK A01 T10161056  RH  074%=      5-min Rain = 0
KVP1 111242Z 33024G30KT M02/M06 A2986 RMK A01 T10161055  RH  074%=      5-min Rain = 0
KVP1 111243Z 34023G30KT M02/M06 A2986 RMK A01 T10161055  RH  075%=      5-min Rain = 0
KVP1 111244Z 33025G32KT M02/M05 A2986 RMK A01 T10161054  RH  075%=      5-min Rain = 0
KVP1 111245Z 33028KT M02/M05 A2987 RMK A01 T10161053  RH  076%=      5-min Rain = 0
KVP1 111246Z 34029G34KT M02/M05 A2987 RMK A01 T10151052  RH  076%=      5-min Rain = 0
KVP1 111247Z 34024G30KT M02/M05 A2987 RMK A01 T10151052  RH  076%=      5-min Rain = 0
KVP1 111248Z 34023KT M02/M05 A2987 RMK A01 T10151052  RH  076%=      5-min Rain = 0
KVP1 111249Z 34023KT M02/M05 A2987 RMK A01 T10151052  RH  076%=      5-min Rain = 0
KVP1 111250Z 34029G36KT M02/M05 A2987 RMK A01 T10151052  RH  076%=      5-min Rain = 0
KVP1 111251Z 34030G35KT M02/M05 A2987 RMK A01 T10151052  RH  076%=      5-min Rain = 0
KVP1 111252Z 34027KT M02/M05 A2988 RMK A01 T10151053  RH  075%=      5-min Rain = 0
KVP1 111253Z 34025G30KT M02/M05 A2988 RMK A01 T10151053  RH  075%=      5-min Rain = 0
KVP1 111254Z 34024G32KT M02/M05 A2988 RMK A01 T10151053  RH  075%=      5-min Rain = 0
KVP1 111255Z 34026G31KT M02/M05 A2988 RMK A01 T10151053  RH  075%=      5-min Rain = 0
KVP1 111256Z 35023G30KT M02/M05 A2988 RMK A01 T10151054  RH  075%=      5-min Rain = 0
KVP1 111257Z 34025KT M02/M05 A2988 RMK A01 T10151054  RH  075%=      5-min Rain = 0
KVP1 111258Z 34024G29KT M01/M05 A2989 RMK A01 T10141053  RH  075%=      5-min Rain = 0
KVP1 111259Z 34025KT M01/M05 A2989 RMK A01 T10141053  RH  075%=      5-min Rain = 0
KVP1 111300Z 33020KT M01/M05 A2989 RMK A01 T10141053  RH  075%=      5-min Rain = 0
KVP1 111301Z 33026G32KT M01/M05 A2989 RMK A01 T10141053  RH  075%=      5-min Rain = 0
KVP1 111302Z 33026KT M01/M05 A2989 RMK A01 T10141054  RH  074%=      5-min Rain = 0
KVP1 111303Z 33029G35KT M01/M05 A2989 RMK A01 T10141054  RH  074%=      5-min Rain = 0
KVP1 111304Z 34026G32KT M02/M06 A2989 RMK A01 T10151055  RH  074%=      5-min Rain = 0
KVP1 111305Z 34026KT M02/M06 A2989 RMK A01 T10151055  RH  074%=      5-min Rain = 0
KVP1 111306Z 33025KT M02/M06 A299 RMK A01 T10161056  RH  074%=      5-min Rain = 0
KVP1 111307Z 34025KT M02/M06 A299 RMK A01 T10161057  RH  074%=      5-min Rain = 0
KVP1 111308Z 34023G30KT M02/M06 A299 RMK A01 T10161057  RH  074%=      5-min Rain = 0
KVP1 111309Z 34023KT M02/M06 A299 RMK A01 T10171058  RH  074%=      5-min Rain = 0
KVP1 111310Z 35022G31KT M02/M06 A299 RMK A01 T10171059  RH  073%=      5-min Rain = 0
KVP1 111311Z 34027KT M02/M06 A299 RMK A01 T10181061  RH  072%=      5-min Rain = 0
KVP1 111312Z 34027G32KT M02/M06 A299 RMK A01 T10191063  RH  072%=      5-min Rain = 0
KVP1 111313Z 34025G33KT M02/M06 A299 RMK A01 T10191064  RH  071%=      5-min Rain = 0
KVP1 111314Z 34023G30KT M02/M06 A299 RMK A01 T10191064  RH  071%=      5-min Rain = 0
KVP1 111315Z 34027G35KT M02/M07 A299 RMK A01 T10191065  RH  071%=      5-min Rain = 0
KVP1 111316Z 34026KT M02/M07 A299 RMK A01 T10191065  RH  071%=      5-min Rain = 0
KVP1 111317Z 34024G30KT M02/M07 A299 RMK A01 T10201066  RH  071%=      5-min Rain = 0
KVP1 111318Z 35024G29KT M02/M07 A299 RMK A01 T10201066  RH  071%=      5-min Rain = 0
KVP1 111319Z 34023G30KT M02/M07 A299 RMK A01 T10201067  RH  071%=      5-min Rain = 0
KVP1 111320Z 34023KT M02/M07 A299 RMK A01 T10201067  RH  071%=      5-min Rain = 0
KVP1 111321Z 35021G26KT M02/M07 A299 RMK A01 T10211067  RH  071%=      5-min Rain = 0
KVP1 111322Z 34022KT M02/M07 A299 RMK A01 T10211068  RH  071%=      5-min Rain = 0
KVP1 111323Z 34026G31KT M02/M07 A299 RMK A01 T10211067  RH  071%=      5-min Rain = 0
KVP1 111324Z 34028G34KT M02/M07 A299 RMK A01 T10211068  RH  070%=      5-min Rain = 0
KVP1 111325Z 35026G38KT M02/M07 A299 RMK A01 T10221070  RH  070%=      5-min Rain = 0
KVP1 111326Z 35028G34KT M02/M07 A299 RMK A01 T10211071  RH  069%=      5-min Rain = 0
KVP1 111327Z 35027G33KT M02/M07 A299 RMK A01 T10221072  RH  068%=      5-min Rain = 0
KVP1 111328Z 34025G34KT M02/M07 A299 RMK A01 T10221073  RH  068%=      5-min Rain = 0
KVP1 111329Z 34024G30KT M02/M07 A299 RMK A01 T10221073  RH  068%=      5-min Rain = 0
KVP1 111330Z 34024G31KT M02/M07 A299 RMK A01 T10221073  RH  068%=      5-min Rain = 0
KVP1 111331Z 34022KT M02/M07 A299 RMK A01 T10221072  RH  068%=      5-min Rain = 0
KVP1 111332Z 34023G31KT M02/M07 A299 RMK A01 T10221072  RH  069%=      5-min Rain = 0
KVP1 111333Z 35027G34KT M02/M07 A299 RMK A01 T10231073  RH  069%=      5-min Rain = 0
KVP1 111334Z 34028G34KT M02/M07 A299 RMK A01 T10231073  RH  069%=      5-min Rain = 0
KVP1 111335Z 35024G31KT M02/M07 A299 RMK A01 T10221072  RH  069%=      5-min Rain = 0
KVP1 111336Z 35025G36KT M02/M07 A299 RMK A01 T10221072  RH  068%=      5-min Rain = 0
KVP1 111337Z 34026G32KT M02/M07 A299 RMK A01 T10221072  RH  068%=      5-min Rain = 0
KVP1 111338Z 34022KT M02/M07 A299 RMK A01 T10211072  RH  068%=      5-min Rain = 0
KVP1 111339Z 34024G31KT M02/M07 A299 RMK A01 T10221072  RH  068%=      5-min Rain = 0
KVP1 111340Z 34027G35KT M02/M07 A299 RMK A01 T10221072  RH  068%=      5-min Rain = 0
KVP1 111341Z 35025G30KT M02/M07 A299 RMK A01 T10221072  RH  068%=      5-min Rain = 0
KVP1 111342Z 34025G32KT M02/M07 A299 RMK A01 T10211072  RH  068%=      5-min Rain = 0
KVP1 111343Z 35025G31KT M02/M07 A299 RMK A01 T10211072  RH  068%=      5-min Rain = 0
KVP1 111344Z 35022G27KT M02/M07 A2991 RMK A01 T10211072  RH  068%=      5-min Rain = 0
KVP1 111345Z 35023KT M02/M07 A2991 RMK A01 T10221072  RH  068%=      5-min Rain = 0
KVP1 111346Z 34025G33KT M02/M07 A2991 RMK A01 T10211072  RH  068%=      5-min Rain = 0
KVP1 111347Z 34025KT M02/M07 A2991 RMK A01 T10211072  RH  068%=      5-min Rain = 0
KVP1 111348Z 34026KT M02/M07 A2991 RMK A01 T10211072  RH  068%=      5-min Rain = 0
KVP1 111349Z 34024G31KT M02/M07 A2991 RMK A01 T10211072  RH  068%=      5-min Rain = 0
KVP1 111350Z 35023G29KT M02/M07 A2991 RMK A01 T10211072  RH  068%=      5-min Rain = 0
KVP1 111351Z 34027G32KT M02/M07 A2991 RMK A01 T10211072  RH  068%=      5-min Rain = 0
KVP1 111352Z 34024G31KT M02/M07 A2991 RMK A01 T10211072  RH  068%=      5-min Rain = 0
KVP1 111353Z 34024G29KT M02/M07 A2991 RMK A01 T10211073  RH  068%=      5-min Rain = 0
KVP1 111354Z 34024G31KT M02/M07 A2992 RMK A01 T10211073  RH  068%=      5-min Rain = 0
KVP1 111355Z 35027G33KT M02/M07 A2992 RMK A01 T10211073  RH  068%=      5-min Rain = 0
KVP1 111356Z 34026G31KT M02/M07 A2992 RMK A01 T10211074  RH  067%=      5-min Rain = 0
KVP1 111357Z 35028G35KT M02/M07 A2992 RMK A01 T10211074  RH  067%=      5-min Rain = 0
KVP1 111358Z 34024G33KT M02/M08 A2992 RMK A01 T10211075  RH  067%=      5-min Rain = 0
KVP1 111359Z 35025KT M02/M08 A2992 RMK A01 T10221075  RH  067%=      5-min Rain = 0
KVP1 111400Z 34026G33KT M02/M08 A2992 RMK A01 T10221076  RH  067%=      5-min Rain = 0
KVP1 111401Z 35025G32KT M02/M08 A2992 RMK A01 T10221077  RH  066%=      5-min Rain = 0
KVP1 111402Z 35024KT M02/M08 A2992 RMK A01 T10221077  RH  066%=      5-min Rain = 0
KVP1 111403Z 34020G26KT M02/M08 A2993 RMK A01 T10221077  RH  066%=      5-min Rain = 0
KVP1 111404Z 35028G34KT M02/M08 A2992 RMK A01 T10231078  RH  066%=      5-min Rain = 0
KVP1 111405Z 35024KT M02/M08 A2993 RMK A01 T10231078  RH  066%=      5-min Rain = 0
KVP1 111406Z 35024G32KT M02/M08 A2992 RMK A01 T10231078  RH  066%=      5-min Rain = 0
KVP1 111407Z 34026KT M02/M08 A2993 RMK A01 T10231078  RH  066%=      5-min Rain = 0
KVP1 111408Z 35025G31KT M02/M08 A2993 RMK A01 T10241079  RH  066%=      5-min Rain = 0
KVP1 111409Z 35028G34KT M02/M08 A2993 RMK A01 T10231078  RH  066%=      5-min Rain = 0
KVP1 111410Z 35025G33KT M02/M08 A2993 RMK A01 T10241079  RH  066%=      5-min Rain = 0
KVP1 111411Z 35024G29KT M02/M08 A2993 RMK A01 T10241080  RH  066%=      5-min Rain = 0
KVP1 111412Z 35024G29KT M02/M08 A2993 RMK A01 T10241080  RH  066%=      5-min Rain = 0
KVP1 111413Z 35023KT M02/M08 A2993 RMK A01 T10241079  RH  066%=      5-min Rain = 0
KVP1 111414Z 35026G31KT M02/M08 A2993 RMK A01 T10241079  RH  066%=      5-min Rain = 0
KVP1 111415Z 35021G28KT M02/M08 A2994 RMK A01 T10241080  RH  066%=      5-min Rain = 0
KVP1 111416Z 35027KT M02/M08 A2994 RMK A01 T10241080  RH  066%=      5-min Rain = 0
KVP1 111417Z 35027G34KT M02/M08 A2994 RMK A01 T10241080  RH  066%=      5-min Rain = 0
KVP1 111418Z 35026G31KT M02/M08 A2994 RMK A01 T10241080  RH  065%=      5-min Rain = 0
KVP1 111419Z 35026G33KT M02/M08 A2994 RMK A01 T10241080  RH  065%=      5-min Rain = 0
KVP1 111420Z 35021G26KT M02/M08 A2994 RMK A01 T10241080  RH  065%=      5-min Rain = 0
KVP1 111421Z 34024G31KT M02/M08 A2994 RMK A01 T10241080  RH  066%=      5-min Rain = 0
KVP1 111422Z 35023G29KT M03/M08 A2994 RMK A01 T10251080  RH  066%=      5-min Rain = 0
KVP1 111423Z 35024G29KT M02/M08 A2994 RMK A01 T10241080  RH  066%=      5-min Rain = 0
KVP1 111424Z 35026G31KT M03/M08 A2994 RMK A01 T10251080  RH  066%=      5-min Rain = 0
KVP1 111425Z 35024G32KT M03/M08 A2994 RMK A01 T10251080  RH  065%=      5-min Rain = 0
KVP1 111426Z 35022G30KT M03/M08 A2994 RMK A01 T10251080  RH  065%=      5-min Rain = 0
KVP1 111427Z 35026G35KT M02/M08 A2994 RMK A01 T10241080  RH  065%=      5-min Rain = 0
KVP1 111428Z 35025G32KT M03/M08 A2995 RMK A01 T10251081  RH  065%=      5-min Rain = 0
KVP1 111429Z 35023G29KT M02/M08 A2995 RMK A01 T10241081  RH  065%=      5-min Rain = 0
KVP1 111430Z 34020G27KT M02/M08 A2995 RMK A01 T10241081  RH  065%=      5-min Rain = 0
KVP1 111431Z 35020G25KT M03/M08 A2995 RMK A01 T10251081  RH  065%=      5-min Rain = 0
KVP1 111432Z 34019G25KT M03/M08 A2995 RMK A01 T10251081  RH  065%=      5-min Rain = 0
KVP1 111433Z 35023G28KT M02/M08 A2995 RMK A01 T10241081  RH  065%=      5-min Rain = 0
KVP1 111434Z 35023G31KT M02/M08 A2995 RMK A01 T10241081  RH  065%=      5-min Rain = 0
KVP1 111435Z 35022KT M02/M08 A2996 RMK A01 T10241082  RH  064%=      5-min Rain = 0
KVP1 111436Z 35020G25KT M02/M08 A2996 RMK A01 T10231081  RH  064%=      5-min Rain = 0
KVP1 111437Z 35025G30KT M02/M08 A2996 RMK A01 T10231081  RH  064%=      5-min Rain = 0
KVP1 111438Z 35027G32KT M02/M08 A2996 RMK A01 T10221081  RH  064%=      5-min Rain = 0
KVP1 111439Z 35021G29KT M02/M08 A2996 RMK A01 T10221082  RH  063%=      5-min Rain = 0
KVP1 111440Z 35021G28KT M02/M08 A2996 RMK A01 T10211082  RH  063%=      5-min Rain = 0
KVP1 111441Z 35022G30KT M02/M08 A2996 RMK A01 T10201082  RH  063%=      5-min Rain = 0
KVP1 111442Z 35025KT M02/M08 A2996 RMK A01 T10201081  RH  063%=      5-min Rain = 0
KVP1 111443Z 35024G30KT M02/M08 A2996 RMK A01 T10201082  RH  063%=      5-min Rain = 0
KVP1 111444Z 35020G26KT M02/M08 A2997 RMK A01 T10191081  RH  063%=      5-min Rain = 0
KVP1 111445Z 35022G29KT M02/M08 A2997 RMK A01 T10181080  RH  063%=      5-min Rain = 0
KVP1 111446Z 34024G30KT M02/M08 A2997 RMK A01 T10181081  RH  062%=      5-min Rain = 0
KVP1 111447Z 36020G26KT M02/M08 A2997 RMK A01 T10171080  RH  062%=      5-min Rain = 0
KVP1 111448Z 34026KT M02/M08 A2997 RMK A01 T10161080  RH  062%=      5-min Rain = 0
KVP1 111449Z 35028G36KT M02/M08 A2997 RMK A01 T10161081  RH  061%=      5-min Rain = 0
KVP1 111450Z 35027G35KT M02/M08 A2997 RMK A01 T10161082  RH  061%=      5-min Rain = 0
KVP1 111451Z 35027G34KT M02/M08 A2997 RMK A01 T10161082  RH  061%=      5-min Rain = 0
KVP1 111452Z 35024KT M02/M08 A2997 RMK A01 T10151081  RH  061%=      5-min Rain = 0
KVP1 111453Z 34025G30KT M02/M08 A2997 RMK A01 T10151081  RH  061%=      5-min Rain = 0
KVP1 111454Z 35028G33KT M02/M08 A2998 RMK A01 T10161082  RH  061%=      5-min Rain = 0
KVP1 111455Z 35026G33KT M02/M08 A2998 RMK A01 T10161082  RH  061%=      5-min Rain = 0
KVP1 111456Z 35030G35KT M02/M08 A2998 RMK A01 T10161082  RH  061%=      5-min Rain = 0
KVP1 111457Z 34024G30KT M02/M08 A2998 RMK A01 T10151082  RH  060%=      5-min Rain = 0
KVP1 111458Z 35023G31KT M01/M08 A2998 RMK A01 T10141081  RH  060%=      5-min Rain = 0
KVP1 111459Z 35024G33KT M01/M08 A2998 RMK A01 T10121081  RH  060%=      5-min Rain = 0
KVP1 111500Z 35030G36KT M01/M08 A2998 RMK A01 T10121083  RH  059%=      5-min Rain = 0
KVP1 111501Z 35029KT M01/M08 A2999 RMK A01 T10121084  RH  058%=      5-min Rain = 0
KVP1 111502Z 35028G33KT M01/M08 A2999 RMK A01 T10121084  RH  058%=      5-min Rain = 0
KVP1 111503Z 34028G34KT M01/M08 A2999 RMK A01 T10121084  RH  058%=      5-min Rain = 0
KVP1 111504Z 35029G38KT M01/M08 A2999 RMK A01 T10111084  RH  058%=      5-min Rain = 0
KVP1 111505Z 35032G38KT M01/M09 A2999 RMK A01 T10111085  RH  057%=      5-min Rain = 0
KVP1 111506Z 35031G43KT M01/M09 A2999 RMK A01 T10121086  RH  057%=      5-min Rain = 0
KVP1 111507Z 35034G39KT M01/M09 A2999 RMK A01 T10121086  RH  057%=      5-min Rain = 0
KVP1 111508Z 35031G37KT M01/M09 A2999 RMK A01 T10121086  RH  057%=      5-min Rain = 0
KVP1 111509Z 36027G33KT M01/M09 A2999 RMK A01 T10121086  RH  057%=      5-min Rain = 0
KVP1 111510Z 35024G30KT M01/M09 A2999 RMK A01 T10111085  RH  057%=      5-min Rain = 0
KVP1 111511Z 35023KT M01/M08 A2999 RMK A01 T10091084  RH  057%=      5-min Rain = 0
KVP1 111512Z 35019G24KT M01/M08 A30 RMK A01 T10091083  RH  057%=      5-min Rain = 0
KVP1 111513Z 34026G33KT M01/M08 A30 RMK A01 T10061081  RH  057%=      5-min Rain = 0
KVP1 111514Z 35031G40KT M01/M08 A2999 RMK A01 T10071083  RH  056%=      5-min Rain = 0
KVP1 111515Z 35024G29KT M01/M09 A30 RMK A01 T10101085  RH  057%=      5-min Rain = 0
KVP1 111516Z 35025G30KT M01/M08 A30 RMK A01 T10101084  RH  057%=      5-min Rain = 0
KVP1 111517Z 34027G36KT M01/M08 A30 RMK A01 T10111084  RH  057%=      5-min Rain = 0
KVP1 111518Z 35027G34KT M01/M08 A30 RMK A01 T10111084  RH  057%=      5-min Rain = 0
KVP1 111519Z 35023G31KT M01/M08 A3001 RMK A01 T10111084  RH  057%=      5-min Rain = 0
KVP1 111520Z 35028G39KT M01/M08 A3001 RMK A01 T10111084  RH  057%=      5-min Rain = 0
KVP1 111521Z 35028G35KT M01/M09 A3001 RMK A01 T10111085  RH  057%=      5-min Rain = 0
KVP1 111522Z 35028G33KT M01/M09 A3001 RMK A01 T10121085  RH  057%=      5-min Rain = 0
KVP1 111523Z 35030G37KT M01/M09 A3001 RMK A01 T10121085  RH  058%=      5-min Rain = 0
KVP1 111524Z 35030G37KT M01/M08 A3001 RMK A01 T10121084  RH  058%=      5-min Rain = 0
KVP1 111525Z 35023G34KT M01/M08 A3001 RMK A01 T10111084  RH  058%=      5-min Rain = 0
KVP1 111526Z 35024G29KT M01/M08 A3001 RMK A01 T10101083  RH  058%=      5-min Rain = 0
KVP1 111527Z 35025G30KT M01/M08 A3001 RMK A01 T10091083  RH  057%=      5-min Rain = 0
KVP1 111528Z 35022G27KT M01/M08 A3002 RMK A01 T10101083  RH  057%=      5-min Rain = 0
KVP1 111529Z 34028G35KT M01/M08 A3002 RMK A01 T10091083  RH  057%=      5-min Rain = 0
KVP1 111530Z 35027G36KT M01/M08 A3002 RMK A01 T10091083  RH  057%=      5-min Rain = 0
KVP1 111531Z 34029G35KT M01/M08 A3002 RMK A01 T10091084  RH  057%=      5-min Rain = 0
KVP1 111532Z 34031KT M01/M08 A3002 RMK A01 T10091084  RH  057%=      5-min Rain = 0
KVP1 111533Z 35027G34KT M01/M08 A3002 RMK A01 T10091084  RH  057%=      5-min Rain = 0
KVP1 111534Z 34027G34KT M01/M09 A3002 RMK A01 T10091085  RH  057%=      5-min Rain = 0
KVP1 111535Z 34031G38KT M01/M09 A3003 RMK A01 T10091085  RH  057%=      5-min Rain = 0
KVP1 111536Z 35027G34KT M01/M09 A3003 RMK A01 T10091085  RH  056%=      5-min Rain = 0
KVP1 111537Z 34027G34KT M01/M09 A3003 RMK A01 T10091085  RH  056%=      5-min Rain = 0
KVP1 111538Z 35028G36KT M01/M09 A3003 RMK A01 T10091086  RH  056%=      5-min Rain = 0
KVP1 111539Z 35027G32KT M01/M09 A3003 RMK A01 T10091086  RH  056%=      5-min Rain = 0
KVP1 111540Z 35027G33KT M01/M09 A3003 RMK A01 T10091086  RH  056%=      5-min Rain = 0
KVP1 111541Z 35026G33KT M01/M09 A3003 RMK A01 T10101086  RH  056%=      5-min Rain = 0
KVP1 111542Z 35027G33KT M01/M09 A3003 RMK A01 T10111086  RH  057%=      5-min Rain = 0
KVP1 111543Z 34029G36KT M01/M09 A3003 RMK A01 T10111087  RH  056%=      5-min Rain = 0
KVP1 111544Z 34029G37KT M01/M09 A3004 RMK A01 T10111087  RH  056%=      5-min Rain = 0
KVP1 111545Z 35026G31KT M01/M09 A3004 RMK A01 T10101086  RH  056%=      5-min Rain = 0
KVP1 111546Z 35027G32KT M01/M09 A3004 RMK A01 T10081086  RH  056%=      5-min Rain = 0
KVP1 111547Z 35026G31KT M01/M09 A3004 RMK A01 T10061086  RH  055%=      5-min Rain = 0
KVP1 111548Z 34024G31KT M01/M09 A3004 RMK A01 T10051086  RH  054%=      5-min Rain = 0
KVP1 111549Z 35025G30KT M00/M09 A3004 RMK A01 T10031086  RH  054%=      5-min Rain = 0
KVP1 111550Z 34027G32KT M00/M09 A3004 RMK A01 T10031086  RH  053%=      5-min Rain = 0
KVP1 111551Z 35023KT M00/M09 A3005 RMK A01 T10011085  RH  053%=      5-min Rain = 0
KVP1 111552Z 34025G34KT 00/08 A3005 RMK A01 T00000-84  RH  053%=      5-min Rain = 0
KVP1 111553Z 34027G34KT 00/M09 A3005 RMK A01 T00011085  RH  052%=      5-min Rain = 0
KVP1 111554Z 35027G38KT 00/M09 A3005 RMK A01 T00011086  RH  052%=      5-min Rain = 0
KVP1 111555Z 35030G35KT 00/M09 A3005 RMK A01 T00011088  RH  051%=      5-min Rain = 0
KVP1 111556Z 34024G32KT 00/09 A3005 RMK A01 T00-00-88  RH  051%=      5-min Rain = 0
KVP1 111557Z 34029G36KT 00/M09 A3005 RMK A01 T00021086  RH  052%=      5-min Rain = 0
KVP1 111558Z 34029G35KT 00/M09 A3005 RMK A01 T00041087  RH  051%=      5-min Rain = 0
KVP1 111559Z 34030G37KT 00/M09 A3005 RMK A01 T00041087  RH  050%=      5-min Rain = 0
KVP1 111600Z 34029G38KT 00/M09 A3005 RMK A01 T00041088  RH  050%=      5-min Rain = 0
KVP1 111601Z 35028G36KT 00/M09 A3006 RMK A01 T00041088  RH  050%=      5-min Rain = 0
KVP1 111602Z 35026G31KT 00/M09 A3006 RMK A01 T00041089  RH  050%=      5-min Rain = 0
KVP1 111603Z 35025KT 00/M09 A3006 RMK A01 T00041088  RH  050%=      5-min Rain = 0
KVP1 111604Z 35021KT 01/M09 A3006 RMK A01 T00051087  RH  050%=      5-min Rain = 0
KVP1 111605Z 35021KT 01/M08 A3006 RMK A01 T00081084  RH  050%=      5-min Rain = 0
KVP1 111606Z 35020G25KT 01/M08 A3006 RMK A01 T00091084  RH  050%=      5-min Rain = 0
KVP1 111607Z 35018G23KT 01/M08 A3006 RMK A01 T00111082  RH  050%=      5-min Rain = 0
KVP1 111608Z 34024KT 01/M08 A3006 RMK A01 T00131082  RH  049%=      5-min Rain = 0
KVP1 111609Z 35026G34KT 01/M08 A3006 RMK A01 T00121084  RH  049%=      5-min Rain = 0
KVP1 111610Z 34028KT 01/M09 A3006 RMK A01 T00121085  RH  048%=      5-min Rain = 0
KVP1 111611Z 34025G31KT 01/M09 A3006 RMK A01 T00111086  RH  049%=      5-min Rain = 0
KVP1 111612Z 34025KT 01/M09 A3007 RMK A01 T00111085  RH  049%=      5-min Rain = 0
KVP1 111613Z 34024KT 01/M09 A3007 RMK A01 T00121085  RH  048%=      5-min Rain = 0
KVP1 111614Z 35019G30KT 01/M09 A3007 RMK A01 T00121085  RH  048%=      5-min Rain = 0
KVP1 111615Z 35021G26KT 01/M09 A3007 RMK A01 T00121085  RH  048%=      5-min Rain = 0
KVP1 111616Z 35026G32KT 01/M09 A3007 RMK A01 T00121086  RH  048%=      5-min Rain = 0
KVP1 111617Z 36024G33KT 01/M09 A3007 RMK A01 T00091088  RH  048%=      5-min Rain = 0
KVP1 111618Z 34024G32KT 01/M09 A3007 RMK A01 T00081088  RH  049%=      5-min Rain = 0
KVP1 111619Z 35020KT 01/M09 A3008 RMK A01 T00071088  RH  049%=      5-min Rain = 0
KVP1 111620Z 35027G33KT 01/M09 A3007 RMK A01 T00071088  RH  049%=      5-min Rain = 0
KVP1 111621Z 35024G31KT 01/M09 A3008 RMK A01 T00061090  RH  049%=      5-min Rain = 0
KVP1 111622Z 35026G33KT 01/M09 A3008 RMK A01 T00051089  RH  049%=      5-min Rain = 0
KVP1 111623Z 34027KT 01/M09 A3008 RMK A01 T00051089  RH  049%=      5-min Rain = 0
KVP1 111624Z 35024G30KT 00/M09 A3008 RMK A01 T00041090  RH  049%=      5-min Rain = 0
KVP1 111625Z 34026KT 00/M09 A3008 RMK A01 T00041091  RH  049%=      5-min Rain = 0
KVP1 111626Z 35023G29KT 00/M09 A3008 RMK A01 T00031092  RH  049%=      5-min Rain = 0
KVP1 111627Z 35022KT 00/M09 A3008 RMK A01 T00041091  RH  049%=      5-min Rain = 0
KVP1 111628Z 34023G28KT 00/M09 A3009 RMK A01 T00041092  RH  049%=      5-min Rain = 0
KVP1 111629Z 34026G32KT 00/M09 A3009 RMK A01 T00041092  RH  049%=      5-min Rain = 0
KVP1 111630Z 35023G30KT 00/M09 A3009 RMK A01 T00041094  RH  048%=      5-min Rain = 0
KVP1 111631Z 36025KT 00/M10 A3009 RMK A01 T00021096  RH  048%=      5-min Rain = 0
KVP1 111632Z 36023KT 00/M10 A3009 RMK A01 T00021096  RH  048%=      5-min Rain = 0
KVP1 111633Z 34023G28KT 00/M10 A3009 RMK A01 T00031095  RH  048%=      5-min Rain = 0
KVP1 111634Z 34024G31KT 01/M09 A3009 RMK A01 T00061093  RH  048%=      5-min Rain = 0
KVP1 111635Z 34028KT 01/M10 A3009 RMK A01 T00061095  RH  047%=      5-min Rain = 0
KVP1 111636Z 34026G32KT 00/M10 A301 RMK A01 T00041096  RH  047%=      5-min Rain = 0
KVP1 111637Z 34026KT 00/M10 A301 RMK A01 T00031096  RH  048%=      5-min Rain = 0
KVP1 111638Z 34026KT 00/M10 A301 RMK A01 T00021096  RH  048%=      5-min Rain = 0
KVP1 111639Z 34023KT 00/M10 A301 RMK A01 T00031095  RH  048%=      5-min Rain = 0
KVP1 111640Z 34025G30KT 01/M09 A3011 RMK A01 T00061094  RH  047%=      5-min Rain = 0
KVP1 111641Z 35028G35KT 01/M10 A301 RMK A01 T00071095  RH  046%=      5-min Rain = 0
KVP1 111642Z 34024KT 00/M10 A3011 RMK A01 T00041099  RH  046%=      5-min Rain = 0
KVP1 111643Z 34026KT 00/M10 A3011 RMK A01 T00041097  RH  047%=      5-min Rain = 0
KVP1 111644Z 34026KT 01/M10 A3011 RMK A01 T00051096  RH  047%=      5-min Rain = 0
KVP1 111645Z 34022G27KT 00/M10 A3011 RMK A01 T00041096  RH  047%=      5-min Rain = 0
KVP1 111646Z 34025G31KT 01/M10 A3011 RMK A01 T00051095  RH  047%=      5-min Rain = 0
KVP1 111647Z 33028G33KT 01/M09 A3011 RMK A01 T00051094  RH  047%=      5-min Rain = 0
KVP1 111648Z 34030G36KT 01/M09 A3011 RMK A01 T00061094  RH  047%=      5-min Rain = 0
KVP1 111649Z 34028G35KT 01/M10 A3011 RMK A01 T00061096  RH  046%=      5-min Rain = 0
KVP1 111650Z 35024G32KT 01/M10 A3011 RMK A01 T00071095  RH  046%=      5-min Rain = 0
KVP1 111651Z 35027KT 01/M10 A3011 RMK A01 T00101096  RH  045%=      5-min Rain = 0
KVP1 111652Z 36025G31KT 01/M10 A3011 RMK A01 T00071099  RH  045%=      5-min Rain = 0
KVP1 111653Z 35028G34KT 01/M10 A3011 RMK A01 T00061099  RH  045%=      5-min Rain = 0
KVP1 111654Z 35022G29KT 01/M10 A3011 RMK A01 T00061098  RH  046%=      5-min Rain = 0
KVP1 111655Z 36022G28KT 01/M10 A3011 RMK A01 T00081096  RH  045%=      5-min Rain = 0
KVP1 111656Z 35029KT 01/M10 A3011 RMK A01 T00081098  RH  045%=      5-min Rain = 0
KVP1 111657Z 35025G33KT 01/M10 A3011 RMK A01 T00061099  RH  045%=      5-min Rain = 0
KVP1 111658Z 36025KT 01/M10 A3011 RMK A01 T00061099  RH  045%=      5-min Rain = 0
KVP1 111659Z 00026G31KT 00/M10 A3011 RMK A01 T00041100  RH  046%=      5-min Rain = 0
KVP1 111700Z 36022G28KT 00/M10 A3011 RMK A01 T00041098  RH  046%=      5-min Rain = 0
KVP1 111701Z 35028G34KT 01/M10 A3011 RMK A01 T00061097  RH  046%=      5-min Rain = 0
KVP1 111702Z 35030G36KT 01/M10 A3011 RMK A01 T00071097  RH  046%=      5-min Rain = 0
KVP1 111703Z 36025G32KT 01/M10 A3011 RMK A01 T00071099  RH  045%=      5-min Rain = 0
KVP1 111704Z 35025KT 01/M10 A3011 RMK A01 T00061098  RH  045%=      5-min Rain = 0
KVP1 111705Z 36024KT 00/M10 A3011 RMK A01 T00041100  RH  045%=      5-min Rain = 0
KVP1 111706Z 36020G28KT 00/M10 A3012 RMK A01 T00041099  RH  046%=      5-min Rain = 0
KVP1 111707Z 36027G35KT 00/M10 A3012 RMK A01 T00041098  RH  046%=      5-min Rain = 0
KVP1 111708Z 35027G33KT 00/M10 A3012 RMK A01 T00021101  RH  046%=      5-min Rain = 0
KVP1 111709Z 36025G30KT M00/M10 A3012 RMK A01 T10011102  RH  046%=      5-min Rain = 0
KVP1 111710Z 36024G30KT M00/M10 A3012 RMK A01 T10021102  RH  047%=      5-min Rain = 0
KVP1 111711Z 35024G29KT M00/M10 A3012 RMK A01 T10011101  RH  047%=      5-min Rain = 0
KVP1 111712Z 35020G26KT 00/M10 A3012 RMK A01 T00011100  RH  047%=      5-min Rain = 0
KVP1 111713Z 36022G30KT 01/M10 A3012 RMK A01 T00051097  RH  046%=      5-min Rain = 0
KVP1 111714Z 00026G33KT 01/M10 A3012 RMK A01 T00061099  RH  045%=      5-min Rain = 0
KVP1 111715Z 36023G29KT 01/M10 A3012 RMK A01 T00051101  RH  045%=      5-min Rain = 0
KVP1 111716Z 36020G28KT 00/M10 A3012 RMK A01 T00041100  RH  046%=      5-min Rain = 0
KVP1 111717Z 35026G34KT 01/M10 A3012 RMK A01 T00061098  RH  046%=      5-min Rain = 0
KVP1 111718Z 36026G34KT 01/M10 A3012 RMK A01 T00071098  RH  045%=      5-min Rain = 0
KVP1 111719Z 35025G31KT 01/M10 A3012 RMK A01 T00071099  RH  045%=      5-min Rain = 0
KVP1 111720Z 35023G30KT 01/M10 A3013 RMK A01 T00071098  RH  045%=      5-min Rain = 0
KVP1 111721Z 36021G26KT 01/M10 A3013 RMK A01 T00091096  RH  046%=      5-min Rain = 0
KVP1 111722Z 36021G27KT 01/M10 A3013 RMK A01 T00111096  RH  045%=      5-min Rain = 0
KVP1 111723Z 36019KT 01/M09 A3013 RMK A01 T00131094  RH  045%=      5-min Rain = 0
KVP1 111724Z 35022G28KT 02/M09 A3013 RMK A01 T00161093  RH  044%=      5-min Rain = 0
KVP1 111725Z 35025G30KT 01/M10 A3013 RMK A01 T00141096  RH  044%=      5-min Rain = 0
KVP1 111726Z 35027KT 01/M10 A3013 RMK A01 T00131096  RH  044%=      5-min Rain = 0
KVP1 111727Z 36026KT 01/M10 A3013 RMK A01 T00121096  RH  044%=      5-min Rain = 0
KVP1 111728Z 00023G31KT 01/M10 A3013 RMK A01 T00131095  RH  044%=      5-min Rain = 0
KVP1 111729Z 36022G29KT 01/M09 A3013 RMK A01 T00141094  RH  044%=      5-min Rain = 0
KVP1 111730Z 00023G29KT 02/M09 A3013 RMK A01 T00161093  RH  044%=      5-min Rain = 0
KVP1 111731Z 36022G27KT 02/M09 A3013 RMK A01 T00181093  RH  044%=      5-min Rain = 0
KVP1 111732Z 35026G32KT 02/M09 A3013 RMK A01 T00211091  RH  043%=      5-min Rain = 0
KVP1 111733Z 35022G27KT 02/M09 A3013 RMK A01 T00201094  RH  043%=      5-min Rain = 0
KVP1 111734Z 36020KT 02/M09 A3013 RMK A01 T00201092  RH  043%=      5-min Rain = 0
KVP1 111735Z 00019G24KT 02/M09 A3013 RMK A01 T00241090  RH  043%=      5-min Rain = 0
KVP1 111736Z 00017G22KT 03/M09 A3013 RMK A01 T00251091  RH  042%=      5-min Rain = 0
KVP1 111737Z 36020G26KT 02/M09 A3013 RMK A01 T00231094  RH  042%=      5-min Rain = 0
KVP1 111738Z 36021KT 02/M09 A3013 RMK A01 T00211094  RH  042%=      5-min Rain = 0
KVP1 111739Z 35024G29KT 02/M09 A3013 RMK A01 T00191094  RH  043%=      5-min Rain = 0
KVP1 111740Z 35022KT 02/M09 A3014 RMK A01 T00181094  RH  043%=      5-min Rain = 0
KVP1 111741Z 36019G25KT 02/M09 A3014 RMK A01 T00181092  RH  044%=      5-min Rain = 0
KVP1 111742Z 35021G28KT 02/M09 A3014 RMK A01 T00201091  RH  044%=      5-min Rain = 0
KVP1 111743Z 34026KT 02/M09 A3014 RMK A01 T00231089  RH  043%=      5-min Rain = 0
KVP1 111744Z 35022G30KT 03/M09 A3013 RMK A01 T00271089  RH  042%=      5-min Rain = 0
KVP1 111745Z 36023G29KT 03/M09 A3013 RMK A01 T00281091  RH  041%=      5-min Rain = 0
KVP1 111746Z 36025G30KT 03/M09 A3013 RMK A01 T00261093  RH  041%=      5-min Rain = 0
KVP1 111747Z 00020G27KT 03/M09 A3013 RMK A01 T00251092  RH  042%=      5-min Rain = 0
KVP1 111748Z 35024G29KT 02/M09 A3013 RMK A01 T00241092  RH  042%=      5-min Rain = 0
KVP1 111749Z 35022G28KT 03/M09 A3013 RMK A01 T00251091  RH  042%=      5-min Rain = 0
KVP1 111750Z 35027G32KT 03/M09 A3013 RMK A01 T00251092  RH  042%=      5-min Rain = 0
KVP1 111751Z 35025KT 02/M10 A3013 RMK A01 T00221095  RH  042%=      5-min Rain = 0
KVP1 111752Z 35020G25KT 02/M09 A3013 RMK A01 T00211094  RH  042%=      5-min Rain = 0
KVP1 111753Z 35020G25KT 02/M09 A3013 RMK A01 T00221092  RH  042%=      5-min Rain = 0
KVP1 111754Z 35022G27KT 02/M09 A3013 RMK A01 T00241092  RH  042%=      5-min Rain = 0
KVP1 111755Z 35024G29KT 02/M09 A3014 RMK A01 T00241093  RH  042%=      5-min Rain = 0
KVP1 111756Z 34021G27KT 02/M09 A3014 RMK A01 T00231093  RH  042%=      5-min Rain = 0
KVP1 111757Z 35019G25KT 02/M09 A3014 RMK A01 T00241091  RH  042%=      5-min Rain = 0
KVP1 111758Z 35023KT 03/M09 A3014 RMK A01 T00261091  RH  042%=      5-min Rain = 0
KVP1 111759Z 35020KT 03/M09 A3014 RMK A01 T00251092  RH  042%=      5-min Rain = 0
KVP1 111800Z 35019G24KT 02/M09 A3014 RMK A01 T00241092  RH  042%=      5-min Rain = 0
KVP1 111801Z 35021G27KT 03/M09 A3014 RMK A01 T00271090  RH  042%=      5-min Rain = 0
KVP1 111802Z 35024G29KT 03/M09 A3014 RMK A01 T00281092  RH  041%=      5-min Rain = 0
KVP1 111803Z 35024G29KT 03/M09 A3014 RMK A01 T00271094  RH  041%=      5-min Rain = 0
KVP1 111804Z 35024KT 03/M09 A3014 RMK A01 T00261094  RH  041%=      5-min Rain = 0
KVP1 111805Z 35023G32KT 03/M09 A3014 RMK A01 T00261094  RH  041%=      5-min Rain = 0
KVP1 111806Z 34025G33KT 03/M09 A3014 RMK A01 T00271093  RH  041%=      5-min Rain = 0
KVP1 111807Z 35024G29KT 03/M09 A3014 RMK A01 T00281093  RH  041%=      5-min Rain = 0
KVP1 111808Z 35023G28KT 03/M09 A3014 RMK A01 T00271094  RH  040%=      5-min Rain = 0
KVP1 111809Z 34028G33KT 03/M09 A3014 RMK A01 T00281094  RH  040%=      5-min Rain = 0
KVP1 111810Z 34030G35KT 03/M10 A3014 RMK A01 T00291095  RH  040%=      5-min Rain = 0
KVP1 111811Z 34028G35KT 03/M09 A3014 RMK A01 T00291094  RH  040%=      5-min Rain = 0
KVP1 111812Z 35023G33KT 03/M10 A3014 RMK A01 T00301095  RH  039%=      5-min Rain = 0
KVP1 111813Z 35026KT 03/M10 A3014 RMK A01 T00291095  RH  040%=      5-min Rain = 0
KVP1 111814Z 35023G29KT 03/M10 A3014 RMK A01 T00281096  RH  039%=      5-min Rain = 0
KVP1 111815Z 35026KT 03/M10 A3014 RMK A01 T00281095  RH  040%=      5-min Rain = 0
KVP1 111816Z 35023KT 03/M10 A3014 RMK A01 T00291095  RH  040%=      5-min Rain = 0
KVP1 111817Z 34023G30KT 03/M09 A3014 RMK A01 T00301093  RH  040%=      5-min Rain = 0
KVP1 111818Z 35021G27KT 03/M09 A3014 RMK A01 T00321093  RH  039%=      5-min Rain = 0
KVP1 111819Z 36022KT 03/M09 A3014 RMK A01 T00321094  RH  039%=      5-min Rain = 0
KVP1 111820Z 35022G27KT 03/M10 A3014 RMK A01 T00301095  RH  039%=      5-min Rain = 0
KVP1 111821Z 35020G25KT 03/M09 A3014 RMK A01 T00291094  RH  040%=      5-min Rain = 0
KVP1 111822Z 35023G28KT 03/M09 A3014 RMK A01 T00301093  RH  040%=      5-min Rain = 0
KVP1 111823Z 34024G30KT 03/M09 A3014 RMK A01 T00321092  RH  040%=      5-min Rain = 0
KVP1 111824Z 35023G31KT 03/M09 A3014 RMK A01 T00331093  RH  039%=      5-min Rain = 0
KVP1 111825Z 36020G27KT 03/M09 A3014 RMK A01 T00321094  RH  039%=      5-min Rain = 0
KVP1 111826Z 35026G34KT 03/M09 A3014 RMK A01 T00321093  RH  039%=      5-min Rain = 0
KVP1 111827Z 35028KT 03/M10 A3014 RMK A01 T00321095  RH  039%=      5-min Rain = 0
KVP1 111828Z 35024G29KT 03/M10 A3014 RMK A01 T00301096  RH  039%=      5-min Rain = 0
KVP1 111829Z 35022G27KT 03/M10 A3014 RMK A01 T00301095  RH  039%=      5-min Rain = 0
KVP1 111830Z 35024KT 03/M09 A3014 RMK A01 T00321094  RH  039%=      5-min Rain = 0
KVP1 111831Z 36025G33KT 03/M09 A3014 RMK A01 T00331093  RH  039%=      5-min Rain = 0
KVP1 111832Z 35024KT 03/M10 A3014 RMK A01 T00331095  RH  039%=      5-min Rain = 0
KVP1 111833Z 35023G29KT 03/M09 A3014 RMK A01 T00321094  RH  039%=      5-min Rain = 0
KVP1 111834Z 34022G27KT 03/M09 A3014 RMK A01 T00331093  RH  039%=      5-min Rain = 0
KVP1 111835Z 35023KT 04/M09 A3014 RMK A01 T00361090  RH  039%=      5-min Rain = 0
KVP1 111836Z 35022G28KT 04/M09 A3014 RMK A01 T00371092  RH  038%=      5-min Rain = 0
KVP1 111837Z 35021G28KT 04/M09 A3014 RMK A01 T00361092  RH  038%=      5-min Rain = 0
KVP1 111838Z 35021G29KT 04/M09 A3014 RMK A01 T00371093  RH  038%=      5-min Rain = 0
KVP1 111839Z 35025KT 04/M09 A3014 RMK A01 T00371093  RH  038%=      5-min Rain = 0
KVP1 111840Z 35022G28KT 04/M09 A3014 RMK A01 T00371094  RH  038%=      5-min Rain = 0
KVP1 111841Z 36028KT 04/M10 A3014 RMK A01 T00371095  RH  038%=      5-min Rain = 0
KVP1 111842Z 35025KT 04/M10 A3014 RMK A01 T00361097  RH  037%=      5-min Rain = 0
KVP1 111843Z 35023G28KT 04/M10 A3014 RMK A01 T00351097  RH  038%=      5-min Rain = 0
KVP1 111844Z 35025KT 04/M10 A3014 RMK A01 T00351096  RH  038%=      5-min Rain = 0
KVP1 111845Z 35025G30KT 04/M10 A3014 RMK A01 T00351096  RH  038%=      5-min Rain = 0
KVP1 111846Z 35022G28KT 03/M10 A3014 RMK A01 T00341096  RH  038%=      5-min Rain = 0
KVP1 111847Z 35025G32KT 03/M10 A3014 RMK A01 T00341096  RH  038%=      5-min Rain = 0
KVP1 111848Z 35021G27KT 03/M10 A3014 RMK A01 T00341096  RH  038%=      5-min Rain = 0
KVP1 111849Z 34021G27KT 04/M09 A3014 RMK A01 T00361094  RH  038%=      5-min Rain = 0
KVP1 111850Z 35024G29KT 04/M09 A3014 RMK A01 T00391093  RH  038%=      5-min Rain = 0
KVP1 111851Z 35023G30KT 04/M09 A3014 RMK A01 T00391094  RH  037%=      5-min Rain = 0
KVP1 111852Z 36020KT 04/M09 A3014 RMK A01 T00391094  RH  037%=      5-min Rain = 0
KVP1 111853Z 36022G29KT 04/M09 A3014 RMK A01 T00401094  RH  037%=      5-min Rain = 0
KVP1 111854Z 35021G26KT 04/M09 A3014 RMK A01 T00401094  RH  037%=      5-min Rain = 0
KVP1 111855Z 36024G32KT 04/M09 A3014 RMK A01 T00391094  RH  037%=      5-min Rain = 0
KVP1 111856Z 35025G31KT 04/M10 A3014 RMK A01 T00401095  RH  037%=      5-min Rain = 0
KVP1 111857Z 35022G27KT 04/M09 A3014 RMK A01 T00391094  RH  037%=      5-min Rain = 0
KVP1 111858Z 35023G31KT 04/M09 A3014 RMK A01 T00411093  RH  037%=      5-min Rain = 0
KVP1 111859Z 00024G31KT 04/M09 A3014 RMK A01 T00431093  RH  036%=      5-min Rain = 0
KVP1 111900Z 36024KT 04/M10 A3014 RMK A01 T00431095  RH  036%=      5-min Rain = 0
KVP1 111901Z 00024G29KT 04/M10 A3014 RMK A01 T00421095  RH  036%=      5-min Rain = 0
KVP1 111902Z 36023G28KT 04/M10 A3014 RMK A01 T00421095  RH  036%=      5-min Rain = 0
KVP1 111903Z 35020G29KT 04/M09 A3014 RMK A01 T00431094  RH  036%=      5-min Rain = 0
KVP1 111904Z 35019G27KT 05/M09 A3014 RMK A01 T00461092  RH  036%=      5-min Rain = 0
KVP1 111905Z 36021G26KT 05/M09 A3014 RMK A01 T00491090  RH  036%=      5-min Rain = 0
KVP1 111906Z 00022G28KT 05/M09 A3014 RMK A01 T00491092  RH  035%=      5-min Rain = 0
KVP1 111907Z 36022G28KT 05/M09 A3014 RMK A01 T00481093  RH  035%=      5-min Rain = 0
KVP1 111908Z 35021G27KT 05/M09 A3014 RMK A01 T00461094  RH  035%=      5-min Rain = 0
KVP1 111909Z 35020G27KT 05/M09 A3014 RMK A01 T00461093  RH  036%=      5-min Rain = 0
KVP1 111910Z 35022G28KT 05/M09 A3014 RMK A01 T00491092  RH  035%=      5-min Rain = 0
KVP1 111911Z 34021KT 05/M09 A3014 RMK A01 T00481093  RH  035%=      5-min Rain = 0
KVP1 111912Z 34023G31KT 05/M09 A3014 RMK A01 T00481093  RH  035%=      5-min Rain = 0
KVP1 111913Z 35027G33KT 05/M09 A3014 RMK A01 T00481094  RH  035%=      5-min Rain = 0
KVP1 111914Z 36020G27KT 05/M10 A3014 RMK A01 T00481095  RH  035%=      5-min Rain = 0
KVP1 111915Z 00022G33KT 05/M10 A3014 RMK A01 T00471096  RH  035%=      5-min Rain = 0
KVP1 111916Z 35023G29KT 05/M10 A3014 RMK A01 T00471095  RH  035%=      5-min Rain = 0
KVP1 111917Z 35021G27KT 05/M10 A3013 RMK A01 T00451095  RH  035%=      5-min Rain = 0
KVP1 111918Z 00019KT 05/M09 A3014 RMK A01 T00461094  RH  035%=      5-min Rain = 0
KVP1 111919Z 36020KT 05/M09 A3014 RMK A01 T00471094  RH  035%=      5-min Rain = 0
KVP1 111920Z 36021KT 05/M09 A3014 RMK A01 T00471094  RH  035%=      5-min Rain = 0
KVP1 111921Z 35020G26KT 05/M09 A3013 RMK A01 T00481093  RH  035%=      5-min Rain = 0
KVP1 111922Z 34020KT 05/M09 A3013 RMK A01 T00511093  RH  035%=      5-min Rain = 0
KVP1 111923Z 35025G30KT 05/M10 A3013 RMK A01 T00501095  RH  034%=      5-min Rain = 0
KVP1 111924Z 35023G28KT 05/M10 A3014 RMK A01 T00491096  RH  034%=      5-min Rain = 0
KVP1 111925Z 35019KT 05/M09 A3014 RMK A01 T00501094  RH  034%=      5-min Rain = 0
KVP1 111926Z 35018G25KT 05/M09 A3014 RMK A01 T00501094  RH  034%=      5-min Rain = 0
KVP1 111927Z 35022G27KT 05/M09 A3014 RMK A01 T00511094  RH  034%=      5-min Rain = 0
KVP1 111928Z 35017G25KT 05/M09 A3014 RMK A01 T00511094  RH  034%=      5-min Rain = 0
KVP1 111929Z 35020KT 05/M09 A3014 RMK A01 T00541092  RH  034%=      5-min Rain = 0
KVP1 111930Z 35020KT 06/M09 A3014 RMK A01 T00551093  RH  034%=      5-min Rain = 0
KVP1 111931Z 36020G26KT 05/M10 A3014 RMK A01 T00521096  RH  033%=      5-min Rain = 0
KVP1 111932Z 36019G24KT 05/M10 A3014 RMK A01 T00501096  RH  034%=      5-min Rain = 0
KVP1 111933Z 35019G25KT 05/M09 A3014 RMK A01 T00521094  RH  034%=      5-min Rain = 0
KVP1 111934Z 35020KT 05/M09 A3014 RMK A01 T00531092  RH  034%=      5-min Rain = 0
KVP1 111935Z 35016G21KT 05/M09 A3014 RMK A01 T00541091  RH  034%=      5-min Rain = 0
KVP1 111936Z 36015G21KT 06/M09 A3014 RMK A01 T00551092  RH  034%=      5-min Rain = 0
KVP1 111937Z 35017KT 06/M09 A3014 RMK A01 T00561093  RH  033%=      5-min Rain = 0
KVP1 111938Z 00016KT 06/M09 A3014 RMK A01 T00561093  RH  033%=      5-min Rain = 0
KVP1 111939Z 36017G23KT 06/M09 A3014 RMK A01 T00561092  RH  033%=      5-min Rain = 0
KVP1 111940Z 34023G28KT 06/M09 A3014 RMK A01 T00561091  RH  034%=      5-min Rain = 0
KVP1 111941Z 34024KT 06/M09 A3014 RMK A01 T00581091  RH  034%=      5-min Rain = 0
KVP1 111942Z 34021KT 06/M09 A3014 RMK A01 T00571092  RH  033%=      5-min Rain = 0
KVP1 111943Z 34021KT 06/M09 A3014 RMK A01 T00571091  RH  034%=      5-min Rain = 0
KVP1 111944Z 35017G22KT 06/M09 A3014 RMK A01 T00561092  RH  033%=      5-min Rain = 0
KVP1 111945Z 35016KT 06/M09 A3014 RMK A01 T00561091  RH  034%=      5-min Rain = 0
KVP1 111946Z 35020KT 06/M09 A3014 RMK A01 T00581090  RH  034%=      5-min Rain = 0
KVP1 111947Z 35020KT 06/M09 A3014 RMK A01 T00581091  RH  033%=      5-min Rain = 0
KVP1 111948Z 34023G30KT 06/M09 A3014 RMK A01 T00581094  RH  033%=      5-min Rain = 0
KVP1 111949Z 34025G30KT 06/M10 A3014 RMK A01 T00581097  RH  032%=      5-min Rain = 0
KVP1 111950Z 35023G28KT 06/M10 A3014 RMK A01 T00571096  RH  032%=      5-min Rain = 0
KVP1 111951Z 34026G31KT 06/M10 A3014 RMK A01 T00561097  RH  032%=      5-min Rain = 0
KVP1 111952Z 34021G26KT 06/M10 A3014 RMK A01 T00561095  RH  033%=      5-min Rain = 0
KVP1 111953Z 35017G22KT 06/M09 A3014 RMK A01 T00571094  RH  033%=      5-min Rain = 0
KVP1 111954Z 36019KT 06/M09 A3014 RMK A01 T00581093  RH  033%=      5-min Rain = 0
KVP1 111955Z 36019G25KT 06/M10 A3014 RMK A01 T00581095  RH  032%=      5-min Rain = 0
KVP1 111956Z 35017G23KT 06/M10 A3014 RMK A01 T00571095  RH  032%=      5-min Rain = 0
KVP1 111957Z 35019KT 06/M09 A3014 RMK A01 T00581094  RH  033%=      5-min Rain = 0
KVP1 111958Z 35020KT 06/M09 A3014 RMK A01 T00591093  RH  033%=      5-min Rain = 0
KVP1 111959Z 35024KT 06/M10 A3014 RMK A01 T00571095  RH  033%=      5-min Rain = 0
KVP1 112000Z 35022KT 05/M10 A3014 RMK A01 T00541097  RH  033%=      5-min Rain = 0
KVP1 112001Z 35019KT 05/M10 A3014 RMK A01 T00541095  RH  033%=      5-min Rain = 0
KVP1 112002Z 35020KT 06/M09 A3014 RMK A01 T00571093  RH  033%=      5-min Rain = 0
KVP1 112003Z 36019G27KT 06/M09 A3014 RMK A01 T00571094  RH  033%=      5-min Rain = 0
KVP1 112004Z 36018G23KT 06/M09 A3014 RMK A01 T00591094  RH  032%=      5-min Rain = 0
KVP1 112005Z 36021G26KT 06/M09 A3014 RMK A01 T00601094  RH  032%=      5-min Rain = 0
KVP1 112006Z 36022G27KT 06/M10 A3014 RMK A01 T00591096  RH  032%=      5-min Rain = 0
KVP1 112007Z 00018KT 06/M10 A3014 RMK A01 T00601096  RH  032%=      5-min Rain = 0
KVP1 112008Z 35021KT 06/M10 A3014 RMK A01 T00611095  RH  032%=      5-min Rain = 0
KVP1 112009Z 35021G26KT 06/M10 A3014 RMK A01 T00581096  RH  032%=      5-min Rain = 0
KVP1 112010Z 34024KT 06/M10 A3014 RMK A01 T00581095  RH  032%=      5-min Rain = 0
KVP1 112011Z 34023G28KT 06/M09 A3014 RMK A01 T00611094  RH  032%=      5-min Rain = 0
KVP1 112012Z 35021G26KT 06/M09 A3014 RMK A01 T00621094  RH  032%=      5-min Rain = 0
KVP1 112013Z 35019G24KT 06/M09 A3014 RMK A01 T00631093  RH  032%=      5-min Rain = 0
KVP1 112014Z 35018G24KT 06/M10 A3014 RMK A01 T00631095  RH  031%=      5-min Rain = 0
KVP1 112015Z 35021G27KT 06/M09 A3014 RMK A01 T00641094  RH  031%=      5-min Rain = 0
KVP1 112016Z 36020G25KT 06/M10 A3014 RMK A01 T00621096  RH  031%=      5-min Rain = 0
KVP1 112017Z 35022KT 06/M10 A3014 RMK A01 T00611096  RH  031%=      5-min Rain = 0
KVP1 112018Z 36021G26KT 06/M10 A3014 RMK A01 T00601096  RH  032%=      5-min Rain = 0
KVP1 112019Z 00021G27KT 06/M10 A3014 RMK A01 T00601096  RH  032%=      5-min Rain = 0
KVP1 112020Z 35017G25KT 06/M10 A3014 RMK A01 T00601095  RH  032%=      5-min Rain = 0
KVP1 112021Z 01020G25KT 06/M09 A3014 RMK A01 T00621094  RH  032%=      5-min Rain = 0
KVP1 112022Z 36017G23KT 06/M10 A3014 RMK A01 T00611096  RH  031%=      5-min Rain = 0
KVP1 112023Z 35022G29KT 06/M10 A3014 RMK A01 T00611096  RH  031%=      5-min Rain = 0
KVP1 112024Z 35022KT 06/M10 A3014 RMK A01 T00611097  RH  031%=      5-min Rain = 0
KVP1 112025Z 35021KT 06/M10 A3014 RMK A01 T00611096  RH  031%=      5-min Rain = 0
KVP1 112026Z 34020G25KT 06/M10 A3014 RMK A01 T00611095  RH  032%=      5-min Rain = 0
KVP1 112027Z 35023KT 06/M09 A3014 RMK A01 T00621094  RH  032%=      5-min Rain = 0
KVP1 112028Z 34022G27KT 06/M09 A3015 RMK A01 T00621094  RH  032%=      5-min Rain = 0
KVP1 112029Z 35022G28KT 06/M10 A3014 RMK A01 T00621095  RH  031%=      5-min Rain = 0
KVP1 112030Z 35024KT 06/M10 A3015 RMK A01 T00601096  RH  031%=      5-min Rain = 0
KVP1 112031Z 35020G25KT 06/M10 A3015 RMK A01 T00601095  RH  032%=      5-min Rain = 0
KVP1 112032Z 35019G24KT 06/M09 A3015 RMK A01 T00601094  RH  032%=      5-min Rain = 0
KVP1 112033Z 34018G24KT 06/M09 A3015 RMK A01 T00601093  RH  032%=      5-min Rain = 0
KVP1 112034Z 00017KT 06/M09 A3015 RMK A01 T00621092  RH  032%=      5-min Rain = 0
KVP1 112035Z 34016G23KT 06/M09 A3015 RMK A01 T00621093  RH  032%=      5-min Rain = 0
KVP1 112036Z 34022KT 06/M09 A3015 RMK A01 T00641091  RH  032%=      5-min Rain = 0
KVP1 112037Z 34021G26KT 07/M09 A3015 RMK A01 T00661091  RH  031%=      5-min Rain = 0
KVP1 112038Z 35019G24KT 07/M09 A3015 RMK A01 T00681093  RH  031%=      5-min Rain = 0
KVP1 112039Z 35018G25KT 07/M09 A3015 RMK A01 T00691093  RH  031%=      5-min Rain = 0
KVP1 112040Z 36020G26KT 07/M10 A3015 RMK A01 T00671095  RH  031%=      5-min Rain = 0
KVP1 112041Z 36022KT 06/M10 A3016 RMK A01 T00641095  RH  031%=      5-min Rain = 0
KVP1 112042Z 34020G25KT 06/M10 A3016 RMK A01 T00621096  RH  031%=      5-min Rain = 0
KVP1 112043Z 35017G22KT 06/M09 A3015 RMK A01 T00611094  RH  032%=      5-min Rain = 0
KVP1 112044Z 36019G26KT 06/M09 A3016 RMK A01 T00621093  RH  032%=      5-min Rain = 0
KVP1 112045Z 36019G24KT 06/M09 A3016 RMK A01 T00631094  RH  031%=      5-min Rain = 0
KVP1 112046Z 35021KT 06/M10 A3016 RMK A01 T00631095  RH  031%=      5-min Rain = 0
KVP1 112047Z 35020KT 06/M09 A3016 RMK A01 T00631094  RH  031%=      5-min Rain = 0
KVP1 112048Z 35019KT 06/M10 A3016 RMK A01 T00631095  RH  031%=      5-min Rain = 0
KVP1 112049Z 36017G23KT 06/M09 A3016 RMK A01 T00631094  RH  032%=      5-min Rain = 0
KVP1 112050Z 00019KT 06/M09 A3016 RMK A01 T00641093  RH  032%=      5-min Rain = 0
KVP1 112051Z 36018G23KT 06/M09 A3016 RMK A01 T00631094  RH  032%=      5-min Rain = 0
KVP1 112052Z 35019G24KT 06/M09 A3016 RMK A01 T00631093  RH  032%=      5-min Rain = 0
KVP1 112053Z 34019KT 07/M09 A3016 RMK A01 T00651092  RH  032%=      5-min Rain = 0
KVP1 112054Z 34019G24KT 07/M09 A3016 RMK A01 T00651091  RH  032%=      5-min Rain = 0
KVP1 112055Z 34021KT 07/M09 A3016 RMK A01 T00671091  RH  032%=      5-min Rain = 0
KVP1 112056Z 34021KT 07/M09 A3016 RMK A01 T00681092  RH  031%=      5-min Rain = 0
KVP1 112057Z 34023KT 07/M09 A3016 RMK A01 T00661093  RH  031%=      5-min Rain = 0
KVP1 112058Z 34023KT 07/M09 A3016 RMK A01 T00651093  RH  031%=      5-min Rain = 0
KVP1 112059Z 35020KT 07/M09 A3016 RMK A01 T00651093  RH  031%=      5-min Rain = 0
KVP1 112100Z 34024G30KT 07/M09 A3016 RMK A01 T00651093  RH  031%=      5-min Rain = 0
KVP1 112101Z 35020G26KT 07/M09 A3016 RMK A01 T00661092  RH  031%=      5-min Rain = 0
KVP1 112102Z 35020KT 07/M09 A3016 RMK A01 T00651093  RH  031%=      5-min Rain = 0
KVP1 112103Z 34021G28KT 06/M09 A3017 RMK A01 T00631093  RH  032%=      5-min Rain = 0
KVP1 112104Z 33023KT 07/M09 A3017 RMK A01 T00651091  RH  032%=      5-min Rain = 0
KVP1 112105Z 34023KT 07/M09 A3017 RMK A01 T00651093  RH  031%=      5-min Rain = 0
KVP1 112106Z 35020G25KT 07/M09 A3017 RMK A01 T00661092  RH  031%=      5-min Rain = 0
KVP1 112107Z 34021G26KT 07/M09 A3017 RMK A01 T00671091  RH  031%=      5-min Rain = 0
KVP1 112108Z 34022G27KT 07/M09 A3017 RMK A01 T00671090  RH  032%=      5-min Rain = 0
KVP1 112109Z 34020G26KT 07/M09 A3017 RMK A01 T00671091  RH  031%=      5-min Rain = 0
KVP1 112110Z 34023KT 07/M09 A3017 RMK A01 T00661092  RH  031%=      5-min Rain = 0
KVP1 112111Z 35019G25KT 07/M09 A3017 RMK A01 T00661092  RH  031%=      5-min Rain = 0
KVP1 112112Z 35015G20KT 07/M09 A3017 RMK A01 T00651092  RH  032%=      5-min Rain = 0
KVP1 112113Z 35022KT 07/M09 A3017 RMK A01 T00671090  RH  032%=      5-min Rain = 0
KVP1 112114Z 35023KT 07/M09 A3017 RMK A01 T00661093  RH  031%=      5-min Rain = 0
KVP1 112115Z 35020KT 06/M09 A3017 RMK A01 T00631094  RH  031%=      5-min Rain = 0
KVP1 112116Z 34018KT 06/M09 A3017 RMK A01 T00621093  RH  032%=      5-min Rain = 0
KVP1 112117Z 34019KT 06/M09 A3017 RMK A01 T00621092  RH  032%=      5-min Rain = 0
KVP1 112118Z 35015G20KT 07/M09 A3017 RMK A01 T00651091  RH  032%=      5-min Rain = 0
KVP1 112119Z 35019G26KT 07/M09 A3017 RMK A01 T00691089  RH  032%=      5-min Rain = 0
KVP1 112120Z 34021G26KT 07/M09 A3017 RMK A01 T00701091  RH  031%=      5-min Rain = 0
KVP1 112121Z 34023KT 07/M09 A3017 RMK A01 T00691093  RH  031%=      5-min Rain = 0
KVP1 112122Z 35018G24KT 07/M09 A3017 RMK A01 T00681093  RH  031%=      5-min Rain = 0
KVP1 112123Z 36018G24KT 07/M09 A3017 RMK A01 T00671093  RH  031%=      5-min Rain = 0
KVP1 112124Z 35019G25KT 07/M09 A3017 RMK A01 T00671094  RH  031%=      5-min Rain = 0
KVP1 112125Z 35020KT 07/M09 A3017 RMK A01 T00671093  RH  031%=      5-min Rain = 0
KVP1 112126Z 36021KT 07/M10 A3017 RMK A01 T00651095  RH  031%=      5-min Rain = 0
KVP1 112127Z 36018G25KT 06/M09 A3017 RMK A01 T00631094  RH  031%=      5-min Rain = 0
KVP1 112128Z 35020KT 06/M09 A3017 RMK A01 T00631093  RH  032%=      5-min Rain = 0
KVP1 112129Z 35018KT 06/M09 A3017 RMK A01 T00621093  RH  032%=      5-min Rain = 0
KVP1 112130Z 34017KT 06/M09 A3017 RMK A01 T00621093  RH  032%=      5-min Rain = 0
KVP1 112131Z 35019KT 07/M09 A3017 RMK A01 T00651090  RH  032%=      5-min Rain = 0
KVP1 112132Z 00018G24KT 07/M09 A3017 RMK A01 T00661091  RH  032%=      5-min Rain = 0
KVP1 112133Z 01018G23KT 07/M09 A3017 RMK A01 T00661092  RH  031%=      5-min Rain = 0
KVP1 112134Z 36016KT 07/M09 A3017 RMK A01 T00651093  RH  031%=      5-min Rain = 0
KVP1 112135Z 00015G21KT 07/M09 A3017 RMK A01 T00651092  RH  032%=      5-min Rain = 0
KVP1 112136Z 00018KT 07/M09 A3017 RMK A01 T00651091  RH  032%=      5-min Rain = 0
KVP1 112137Z 35012KT 07/M09 A3017 RMK A01 T00651092  RH  031%=      5-min Rain = 0
KVP1 112138Z 36019G26KT 07/M09 A3017 RMK A01 T00661091  RH  032%=      5-min Rain = 0
KVP1 112139Z 35014G19KT 07/M09 A3018 RMK A01 T00661092  RH  031%=      5-min Rain = 0
KVP1 112140Z 35020G25KT 07/M09 A3018 RMK A01 T00661092  RH  031%=      5-min Rain = 0
KVP1 112141Z 36019KT 06/M10 A3018 RMK A01 T00641095  RH  031%=      5-min Rain = 0
KVP1 112142Z 35017G23KT 06/M09 A3018 RMK A01 T00641094  RH  031%=      5-min Rain = 0
KVP1 112143Z 35018KT 06/M09 A3018 RMK A01 T00641094  RH  031%=      5-min Rain = 0
KVP1 112144Z 34018G24KT 06/M09 A3018 RMK A01 T00631094  RH  031%=      5-min Rain = 0
KVP1 112145Z 35018KT 07/M09 A3018 RMK A01 T00661092  RH  031%=      5-min Rain = 0
KVP1 112146Z 36016G23KT 07/M09 A3018 RMK A01 T00661094  RH  031%=      5-min Rain = 0
KVP1 112147Z 36018KT 07/M09 A3018 RMK A01 T00661094  RH  031%=      5-min Rain = 0
KVP1 112148Z 35017KT 07/M09 A3018 RMK A01 T00661094  RH  031%=      5-min Rain = 0
KVP1 112149Z 36019KT 07/M09 A3018 RMK A01 T00651093  RH  031%=      5-min Rain = 0
KVP1 112150Z 35018KT 06/M09 A3018 RMK A01 T00641094  RH  031%=      5-min Rain = 0
KVP1 112151Z 36019KT 06/M09 A3018 RMK A01 T00641093  RH  032%=      5-min Rain = 0
KVP1 112152Z 36018G26KT 06/M09 A3018 RMK A01 T00641093  RH  032%=      5-min Rain = 0
KVP1 112153Z 35018KT 06/M09 A3018 RMK A01 T00641092  RH  032%=      5-min Rain = 0
KVP1 112154Z 35018KT 06/M09 A3018 RMK A01 T00641092  RH  032%=      5-min Rain = 0
KVP1 112155Z 35018KT 06/M09 A3018 RMK A01 T00641093  RH  032%=      5-min Rain = 0
KVP1 112156Z 35015KT 06/M09 A3018 RMK A01 T00641092  RH  032%=      5-min Rain = 0
KVP1 112157Z 35019KT 06/M09 A3018 RMK A01 T00641091  RH  032%=      5-min Rain = 0
KVP1 112158Z 35016G22KT 06/M09 A3018 RMK A01 T00631092  RH  032%=      5-min Rain = 0
KVP1 112159Z 35018KT 06/M09 A3018 RMK A01 T00631092  RH  032%=      5-min Rain = 0
KVP1 112200Z 35017G23KT 06/M09 A3018 RMK A01 T00631091  RH  032%=      5-min Rain = 0
KVP1 112201Z 36019G24KT 06/M09 A3018 RMK A01 T00631091  RH  032%=      5-min Rain = 0
KVP1 112202Z 35018G24KT 06/M09 A3018 RMK A01 T00621092  RH  032%=      5-min Rain = 0
KVP1 112203Z 35018KT 06/M09 A3018 RMK A01 T00611091  RH  032%=      5-min Rain = 0
KVP1 112204Z 34018KT 06/M09 A3018 RMK A01 T00621091  RH  033%=      5-min Rain = 0
KVP1 112205Z 34017KT 06/M09 A3018 RMK A01 T00621091  RH  032%=      5-min Rain = 0
KVP1 112206Z 34016KT 06/M09 A3018 RMK A01 T00641091  RH  032%=      5-min Rain = 0
KVP1 112207Z 35013KT 07/M09 A3018 RMK A01 T00651091  RH  032%=      5-min Rain = 0
KVP1 112208Z 35013KT 07/M09 A3018 RMK A01 T00651090  RH  032%=      5-min Rain = 0
KVP1 112209Z 34014KT 07/M09 A3018 RMK A01 T00671089  RH  032%=      5-min Rain = 0
KVP1 112210Z 34014KT 07/M09 A3018 RMK A01 T00671089  RH  032%=      5-min Rain = 0
KVP1 112211Z 34017KT 07/M09 A3019 RMK A01 T00671089  RH  032%=      5-min Rain = 0
KVP1 112212Z 35015G21KT 07/M09 A3019 RMK A01 T00661091  RH  032%=      5-min Rain = 0
KVP1 112213Z 35020KT 07/M09 A3019 RMK A01 T00661092  RH  031%=      5-min Rain = 0
KVP1 112214Z 35017G22KT 07/M09 A3019 RMK A01 T00651094  RH  031%=      5-min Rain = 0
KVP1 112215Z 36018G23KT 06/M09 A3019 RMK A01 T00631094  RH  031%=      5-min Rain = 0
KVP1 112216Z 35017KT 06/M10 A3019 RMK A01 T00621095  RH  032%=      5-min Rain = 0
KVP1 112217Z 35017KT 06/M09 A3019 RMK A01 T00611093  RH  032%=      5-min Rain = 0
KVP1 112218Z 34017KT 06/M09 A3019 RMK A01 T00621092  RH  032%=      5-min Rain = 0
KVP1 112219Z 35015KT 06/M09 A3019 RMK A01 T00621092  RH  032%=      5-min Rain = 0
KVP1 112220Z 35016KT 06/M09 A3019 RMK A01 T00631092  RH  032%=      5-min Rain = 0
KVP1 112221Z 35014KT 06/M09 A3019 RMK A01 T00631093  RH  032%=      5-min Rain = 0
KVP1 112222Z 35013KT 06/M09 A3019 RMK A01 T00641093  RH  032%=      5-min Rain = 0
KVP1 112223Z 35018KT 07/M09 A3019 RMK A01 T00651093  RH  031%=      5-min Rain = 0
KVP1 112224Z 35017KT 06/M09 A3019 RMK A01 T00641094  RH  031%=      5-min Rain = 0
KVP1 112225Z 35015KT 06/M09 A3019 RMK A01 T00631094  RH  032%=      5-min Rain = 0
KVP1 112226Z 35014KT 06/M09 A3019 RMK A01 T00631093  RH  032%=      5-min Rain = 0
KVP1 112227Z 35014KT 06/M09 A3019 RMK A01 T00631094  RH  032%=      5-min Rain = 0
KVP1 112228Z 35015KT 06/M09 A3019 RMK A01 T00631093  RH  032%=      5-min Rain = 0
KVP1 112229Z 35014KT 06/M09 A3019 RMK A01 T00631093  RH  032%=      5-min Rain = 0
KVP1 112230Z 34017KT 06/M09 A3019 RMK A01 T00631092  RH  032%=      5-min Rain = 0
KVP1 112231Z 34016G21KT 06/M09 A3019 RMK A01 T00631092  RH  032%=      5-min Rain = 0
KVP1 112232Z 34011KT 06/M09 A302 RMK A01 T00641093  RH  032%=      5-min Rain = 0
KVP1 112233Z 35015G20KT 07/M09 A302 RMK A01 T00651092  RH  032%=      5-min Rain = 0
KVP1 112234Z 34016KT 06/M09 A302 RMK A01 T00641093  RH  032%=      5-min Rain = 0
KVP1 112235Z 34013KT 06/M09 A302 RMK A01 T00631092  RH  032%=      5-min Rain = 0
KVP1 112236Z 34013G18KT 06/M09 A302 RMK A01 T00631092  RH  032%=      5-min Rain = 0
KVP1 112237Z 33017G23KT 06/M09 A302 RMK A01 T00631092  RH  032%=      5-min Rain = 0
KVP1 112238Z 34019KT 06/M09 A302 RMK A01 T00631093  RH  032%=      5-min Rain = 0
KVP1 112239Z 35016KT 06/M09 A302 RMK A01 T00621094  RH  032%=      5-min Rain = 0
KVP1 112240Z 34015KT 06/M09 A302 RMK A01 T00621093  RH  032%=      5-min Rain = 0
KVP1 112241Z 35014KT 06/M09 A302 RMK A01 T00621092  RH  032%=      5-min Rain = 0
KVP1 112242Z 35012KT 06/M09 A302 RMK A01 T00621091  RH  032%=      5-min Rain = 0
KVP1 112243Z 35013KT 06/M09 A302 RMK A01 T00621091  RH  033%=      5-min Rain = 0
KVP1 112244Z 35014KT 06/M09 A302 RMK A01 T00621091  RH  032%=      5-min Rain = 0
KVP1 112245Z 34017G22KT 06/M09 A302 RMK A01 T00621092  RH  032%=      5-min Rain = 0
KVP1 112246Z 34018KT 06/M10 A302 RMK A01 T00621095  RH  032%=      5-min Rain = 0
KVP1 112247Z 34017G22KT 06/M10 A302 RMK A01 T00611098  RH  031%=      5-min Rain = 0
KVP1 112248Z 35020KT 06/M10 A302 RMK A01 T00601099  RH  031%=      5-min Rain = 0
KVP1 112249Z 34018KT 06/M10 A302 RMK A01 T00591100  RH  031%=      5-min Rain = 0
KVP1 112250Z 34018KT 06/M10 A302 RMK A01 T00581100  RH  031%=      5-min Rain = 0
KVP1 112251Z 34018KT 06/M10 A302 RMK A01 T00581099  RH  031%=      5-min Rain = 0
KVP1 112252Z 34018KT 06/M10 A302 RMK A01 T00581099  RH  031%=      5-min Rain = 0
KVP1 112253Z 34019G24KT 06/M10 A302 RMK A01 T00581099  RH  031%=      5-min Rain = 0
KVP1 112254Z 34017KT 06/M10 A302 RMK A01 T00571099  RH  032%=      5-min Rain = 0
KVP1 112255Z 34019KT 06/M10 A302 RMK A01 T00571098  RH  032%=      5-min Rain = 0
KVP1 112256Z 34018KT 06/M10 A302 RMK A01 T00571097  RH  032%=      5-min Rain = 0
KVP1 112257Z 35016G21KT 06/M10 A3021 RMK A01 T00571097  RH  032%=      5-min Rain = 0
KVP1 112258Z 34016KT 06/M10 A3021 RMK A01 T00571097  RH  032%=      5-min Rain = 0
KVP1 112259Z 34019KT 06/M10 A3021 RMK A01 T00561097  RH  032%=      5-min Rain = 0
KVP1 112300Z 35016G21KT 06/M10 A3021 RMK A01 T00561097  RH  032%=      5-min Rain = 0
KVP1 112301Z 35017G22KT 06/M10 A3021 RMK A01 T00551097  RH  033%=      5-min Rain = 0
KVP1 112302Z 35017KT 06/M10 A3021 RMK A01 T00551096  RH  033%=      5-min Rain = 0
KVP1 112303Z 35018KT 06/M10 A3021 RMK A01 T00551096  RH  033%=      5-min Rain = 0
KVP1 112304Z 34016KT 05/M10 A3021 RMK A01 T00541096  RH  033%=      5-min Rain = 0
KVP1 112305Z 35016KT 05/M10 A3021 RMK A01 T00541096  RH  033%=      5-min Rain = 0
KVP1 112306Z 35015G21KT 05/M10 A3021 RMK A01 T00541096  RH  033%=      5-min Rain = 0
KVP1 112307Z 35016KT 05/M10 A3021 RMK A01 T00541096  RH  033%=      5-min Rain = 0
KVP1 112308Z 35014KT 05/M10 A3021 RMK A01 T00531097  RH  033%=      5-min Rain = 0
KVP1 112309Z 35016KT 05/M10 A3021 RMK A01 T00531096  RH  033%=      5-min Rain = 0
KVP1 112310Z 35014KT 05/M10 A3021 RMK A01 T00531096  RH  033%=      5-min Rain = 0
KVP1 112311Z 36015KT 05/M10 A3021 RMK A01 T00521096  RH  033%=      5-min Rain = 0
KVP1 112312Z 36013KT 05/M10 A3021 RMK A01 T00521095  RH  034%=      5-min Rain = 0
KVP1 112313Z 35013KT 05/M10 A3021 RMK A01 T00521095  RH  034%=      5-min Rain = 0
KVP1 112314Z 35014KT 05/M10 A3021 RMK A01 T00521095  RH  034%=      5-min Rain = 0
KVP1 112315Z 35012KT 05/M09 A3021 RMK A01 T00511094  RH  034%=      5-min Rain = 0
KVP1 112316Z 36012KT 05/M09 A3021 RMK A01 T00511094  RH  034%=      5-min Rain = 0
KVP1 112317Z 35010KT 05/M09 A3021 RMK A01 T00511093  RH  034%=      5-min Rain = 0
KVP1 112318Z 35010KT 05/M09 A3022 RMK A01 T00501093  RH  035%=      5-min Rain = 0
KVP1 112319Z 35014KT 05/M09 A3022 RMK A01 T00501094  RH  035%=      5-min Rain = 0
KVP1 112320Z 35014KT 05/M10 A3022 RMK A01 T00491095  RH  034%=      5-min Rain = 0
KVP1 112321Z 35014KT 05/M10 A3022 RMK A01 T00491095  RH  034%=      5-min Rain = 0
KVP1 112322Z 35013KT 05/M10 A3022 RMK A01 T00491096  RH  034%=      5-min Rain = 0
KVP1 112323Z 35012KT 05/M10 A3022 RMK A01 T00491095  RH  034%=      5-min Rain = 0
KVP1 112324Z 34011KT 05/M10 A3022 RMK A01 T00481095  RH  034%=      5-min Rain = 0
KVP1 112325Z 35013KT 05/M10 A3022 RMK A01 T00481096  RH  035%=      5-min Rain = 0
KVP1 112326Z 35013KT 05/M10 A3022 RMK A01 T00471096  RH  035%=      5-min Rain = 0
KVP1 112327Z 34013KT 05/M10 A3022 RMK A01 T00471096  RH  035%=      5-min Rain = 0
KVP1 112328Z 35012KT 05/M10 A3022 RMK A01 T00471096  RH  035%=      5-min Rain = 0
KVP1 112329Z 36011KT 05/M10 A3022 RMK A01 T00461096  RH  035%=      5-min Rain = 0
KVP1 112330Z 35010KT 05/M10 A3022 RMK A01 T00461095  RH  035%=      5-min Rain = 0
KVP1 112331Z 36011KT 05/M10 A3022 RMK A01 T00451095  RH  035%=      5-min Rain = 0
KVP1 112332Z 36011KT 05/M10 A3022 RMK A01 T00451095  RH  035%=      5-min Rain = 0
KVP1 112333Z 35012KT 04/M10 A3022 RMK A01 T00441096  RH  035%=      5-min Rain = 0
KVP1 112334Z 36014KT 04/M10 A3022 RMK A01 T00441096  RH  035%=      5-min Rain = 0
KVP1 112335Z 35012KT 04/M10 A3022 RMK A01 T00441096  RH  035%=      5-min Rain = 0
KVP1 112336Z 36012KT 04/M10 A3022 RMK A01 T00441097  RH  035%=      5-min Rain = 0
KVP1 112337Z 00011KT 04/M10 A3022 RMK A01 T00441097  RH  035%=      5-min Rain = 0
KVP1 112338Z 00008KT 04/M10 A3022 RMK A01 T00421097  RH  035%=      5-min Rain = 0
KVP1 112339Z 36009KT 04/M10 A3022 RMK A01 T00411098  RH  036%=      5-min Rain = 0
KVP1 112340Z 36009KT 04/M10 A3022 RMK A01 T00401098  RH  036%=      5-min Rain = 0
KVP1 112341Z 00009KT 04/M10 A3022 RMK A01 T00401099  RH  036%=      5-min Rain = 0
KVP1 112342Z 36009KT 04/M10 A3022 RMK A01 T00391099  RH  036%=      5-min Rain = 0
KVP1 112343Z 36008KT 04/M10 A3023 RMK A01 T00381099  RH  036%=      5-min Rain = 0
KVP1 112344Z 00006KT 04/M10 A3023 RMK A01 T00371100  RH  036%=      5-min Rain = 0
KVP1 112345Z 36006KT 04/M10 A3023 RMK A01 T00361100  RH  036%=      5-min Rain = 0
KVP1 112346Z 36007KT 04/M10 A3023 RMK A01 T00351100  RH  037%=      5-min Rain = 0
KVP1 112347Z 36007KT 04/M10 A3023 RMK A01 T00351100  RH  037%=      5-min Rain = 0
KVP1 112348Z 36007KT 03/M10 A3023 RMK A01 T00341100  RH  037%=      5-min Rain = 0
KVP1 112349Z 00005KT 03/M10 A3023 RMK A01 T00331101  RH  037%=      5-min Rain = 0
KVP1 112350Z 36006KT 03/M10 A3023 RMK A01 T00321100  RH  037%=      5-min Rain = 0
KVP1 112351Z 36006KT 03/M10 A3023 RMK A01 T00311101  RH  037%=      5-min Rain = 0
KVP1 112352Z 36006KT 03/M10 A3023 RMK A01 T00301101  RH  038%=      5-min Rain = 0
KVP1 112353Z 00007KT 03/M10 A3023 RMK A01 T00291100  RH  038%=      5-min Rain = 0
KVP1 112354Z 36006KT 03/M10 A3023 RMK A01 T00291100  RH  038%=      5-min Rain = 0
KVP1 112355Z 35005KT 03/M10 A3023 RMK A01 T00291100  RH  038%=      5-min Rain = 0
KVP1 112356Z 36005KT 03/M10 A3023 RMK A01 T00271101  RH  038%=      5-min Rain = 0
KVP1 112357Z 35006KT 03/M10 A3023 RMK A01 T00261101  RH  039%=      5-min Rain = 0
KVP1 112358Z 35006KT 03/M10 A3023 RMK A01 T00251101  RH  039%=      5-min Rain = 0
KVP1 112359Z 35005KT 02/M10 A3024 RMK A01 T00241101  RH  039%=      5-min Rain = 0
KVP1 120000Z 35006KT 02/M10 A3024 RMK A01 T00231102  RH  039%=      5-min Rain = 0
KVP1 120001Z 36005KT 02/M10 A3024 RMK A01 T00201103  RH  040%=      5-min Rain = 0
KVP1 120002Z 36006KT 02/M10 A3024 RMK A01 T00191102  RH  040%=      5-min Rain = 0
KVP1 120003Z 36006KT 02/M10 A3024 RMK A01 T00181102  RH  040%=      5-min Rain = 0
KVP1 120004Z 36006KT 02/M10 A3024 RMK A01 T00181101  RH  041%=      5-min Rain = 0
KVP1 120005Z 35006KT 02/M10 A3024 RMK A01 T00181100  RH  041%=      5-min Rain = 0
KVP1 120006Z 35007KT 02/M10 A3024 RMK A01 T00181101  RH  041%=      5-min Rain = 0
KVP1 120007Z 35005KT 02/M10 A3024 RMK A01 T00181101  RH  041%=      5-min Rain = 0
KVP1 120008Z 35005KT 02/M10 A3024 RMK A01 T00161102  RH  041%=      5-min Rain = 0
KVP1 120009Z 34006KT 01/M10 A3024 RMK A01 T00141104  RH  041%=      5-min Rain = 0
KVP1 120010Z 34007KT 01/M11 A3024 RMK A01 T00091106  RH  042%=      5-min Rain = 0
KVP1 120011Z 34007KT 00/M11 A3024 RMK A01 T00041108  RH  043%=      5-min Rain = 0
KVP1 120012Z 34007KT M00/M11 A3024 RMK A01 T10011110  RH  044%=      5-min Rain = 0
KVP1 120013Z 34007KT M00/M11 A3024 RMK A01 T10041109  RH  045%=      5-min Rain = 0
KVP1 120014Z 34008KT M01/M11 A3024 RMK A01 T10051109  RH  045%=      5-min Rain = 0
KVP1 120015Z 34007KT M01/M11 A3024 RMK A01 T10071110  RH  046%=      5-min Rain = 0
KVP1 120016Z 34008KT M01/M11 A3024 RMK A01 T10091111  RH  046%=      5-min Rain = 0
KVP1 120017Z 33008KT M01/M11 A3025 RMK A01 T10111111  RH  047%=      5-min Rain = 0
KVP1 120018Z 34008KT M01/M11 A3025 RMK A01 T10131112  RH  047%=      5-min Rain = 0
KVP1 120019Z 33008KT M01/M11 A3025 RMK A01 T10141112  RH  047%=      5-min Rain = 0
KVP1 120020Z 34008KT M02/M11 A3025 RMK A01 T10151112  RH  048%=      5-min Rain = 0
KVP1 120021Z 34009KT M02/M11 A3025 RMK A01 T10171112  RH  048%=      5-min Rain = 0
KVP1 120022Z 34009KT M02/M11 A3025 RMK A01 T10181112  RH  049%=      5-min Rain = 0
KVP1 120023Z 34009KT M02/M11 A3025 RMK A01 T10181111  RH  049%=      5-min Rain = 0
KVP1 120024Z 34009KT M02/M11 A3025 RMK A01 T10171110  RH  049%=      5-min Rain = 0
KVP1 120025Z 34009KT M02/M11 A3025 RMK A01 T10171109  RH  049%=      5-min Rain = 0
KVP1 120026Z 34010KT M02/M11 A3025 RMK A01 T10171109  RH  049%=      5-min Rain = 0
KVP1 120027Z 34010KT M02/M11 A3025 RMK A01 T10181110  RH  049%=      5-min Rain = 0
KVP1 120028Z 34010KT M02/M11 A3025 RMK A01 T10191110  RH  050%=      5-min Rain = 0
KVP1 120029Z 34010KT M02/M11 A3025 RMK A01 T10181109  RH  050%=      5-min Rain = 0
KVP1 120030Z 35010KT M02/M11 A3025 RMK A01 T10161106  RH  050%=      5-min Rain = 0
KVP1 120031Z 35010KT M01/M10 A3025 RMK A01 T10091100  RH  050%=      5-min Rain = 0
KVP1 120032Z 35009KT M00/M10 A3025 RMK A01 T10011098  RH  048%=      5-min Rain = 0
KVP1 120033Z 35008KT 00/M10 A3025 RMK A01 T00041098  RH  046%=      5-min Rain = 0
KVP1 120034Z 35008KT 01/M10 A3025 RMK A01 T00071099  RH  045%=      5-min Rain = 0
KVP1 120035Z 35008KT 01/M10 A3025 RMK A01 T00091099  RH  044%=      5-min Rain = 0
KVP1 120036Z 35008KT 01/M10 A3025 RMK A01 T00101100  RH  044%=      5-min Rain = 0
KVP1 120037Z 35008KT 01/M10 A3025 RMK A01 T00101101  RH  043%=      5-min Rain = 0
KVP1 120038Z 35008KT 01/M10 A3025 RMK A01 T00101102  RH  043%=      5-min Rain = 0
KVP1 120039Z 35007KT 01/M10 A3025 RMK A01 T00081103  RH  043%=      5-min Rain = 0
KVP1 120040Z 35007KT 01/M11 A3025 RMK A01 T00051106  RH  043%=      5-min Rain = 0
KVP1 120041Z 34007KT 00/M11 A3025 RMK A01 T00011108  RH  044%=      5-min Rain = 0
KVP1 120042Z 34007KT M00/M11 A3025 RMK A01 T10031110  RH  045%=      5-min Rain = 0
KVP1 120043Z 33006KT M01/M11 A3025 RMK A01 T10071111  RH  045%=      5-min Rain = 0
KVP1 120044Z 33006KT M01/M11 A3025 RMK A01 T10111111  RH  046%=      5-min Rain = 0
KVP1 120045Z 33005KT M01/M11 A3025 RMK A01 T10131111  RH  047%=      5-min Rain = 0
KVP1 120046Z 33005KT M02/M11 A3025 RMK A01 T10151111  RH  048%=      5-min Rain = 0
KVP1 120047Z 33005KT M02/M11 A3025 RMK A01 T10171111  RH  049%=      5-min Rain = 0
KVP1 120048Z 33005KT M02/M11 A3026 RMK A01 T10181111  RH  049%=      5-min Rain = 0
KVP1 120049Z 33006KT M02/M11 A3026 RMK A01 T10191111  RH  049%=      5-min Rain = 0
KVP1 120050Z 33005KT M02/M11 A3026 RMK A01 T10201111  RH  050%=      5-min Rain = 0
KVP1 120051Z 33006KT M02/M11 A3026 RMK A01 T10201110  RH  050%=      5-min Rain = 0
KVP1 120052Z 33006KT M02/M11 A3026 RMK A01 T10201110  RH  050%=      5-min Rain = 0
KVP1 120053Z 33006KT M02/M11 A3026 RMK A01 T10201110  RH  050%=      5-min Rain = 0
KVP1 120054Z 33007KT M02/M11 A3026 RMK A01 T10201109  RH  051%=      5-min Rain = 0
KVP1 120055Z 34007KT M02/M11 A3026 RMK A01 T10191108  RH  051%=      5-min Rain = 0
KVP1 120056Z 34007KT M02/M11 A3026 RMK A01 T10181108  RH  050%=      5-min Rain = 0
KVP1 120057Z 34006KT M02/M11 A3026 RMK A01 T10181108  RH  050%=      5-min Rain = 0
KVP1 120058Z 34006KT M02/M11 A3026 RMK A01 T10171107  RH  050%=      5-min Rain = 0
KVP1 120059Z 35006KT M02/M11 A3026 RMK A01 T10151106  RH  050%=      5-min Rain = 0
KVP1 120100Z 35006KT M01/M11 A3026 RMK A01 T10131105  RH  050%=      5-min Rain = 0
KVP1 120101Z 35006KT M01/M11 A3026 RMK A01 T10131106  RH  049%=      5-min Rain = 0
KVP1 120102Z 34006KT M01/M11 A3026 RMK A01 T10121106  RH  049%=      5-min Rain = 0
KVP1 120103Z 34005KT M01/M11 A3026 RMK A01 T10121107  RH  049%=      5-min Rain = 0
KVP1 120104Z 34006KT M01/M11 A3026 RMK A01 T10121107  RH  048%=      5-min Rain = 0
KVP1 120105Z 34006KT M01/M11 A3026 RMK A01 T10121107  RH  048%=      5-min Rain = 0
KVP1 120106Z 34006KT M01/M11 A3026 RMK A01 T10131108  RH  048%=      5-min Rain = 0
KVP1 120107Z 34006KT M01/M11 A3026 RMK A01 T10141109  RH  048%=      5-min Rain = 0
KVP1 120108Z 34005KT M02/M11 A3026 RMK A01 T10151109  RH  049%=      5-min Rain = 0
KVP1 120109Z 34005KT M02/M11 A3026 RMK A01 T10151109  RH  049%=      5-min Rain = 0
KVP1 120110Z 34005KT M02/M11 A3026 RMK A01 T10161109  RH  049%=      5-min Rain = 0
KVP1 120111Z 34005KT M02/M11 A3026 RMK A01 T10171109  RH  049%=      5-min Rain = 0
KVP1 120112Z 33005KT M02/M11 A3026 RMK A01 T10181110  RH  050%=      5-min Rain = 0
KVP1 120113Z 34005KT M02/M11 A3026 RMK A01 T10191110  RH  050%=      5-min Rain = 0
KVP1 120114Z 34005KT M02/M11 A3026 RMK A01 T10201110  RH  050%=      5-min Rain = 0
KVP1 120115Z 34006KT M02/M11 A3026 RMK A01 T10211110  RH  051%=      5-min Rain = 0
KVP1 120116Z 34005KT M02/M11 A3026 RMK A01 T10211110  RH  051%=      5-min Rain = 0
KVP1 120117Z 33005KT M02/M11 A3026 RMK A01 T10211109  RH  051%=      5-min Rain = 0
KVP1 120118Z 34006KT M02/M11 A3026 RMK A01 T10211109  RH  051%=      5-min Rain = 0
KVP1 120119Z 33006KT M02/M11 A3026 RMK A01 T10211109  RH  051%=      5-min Rain = 0
KVP1 120120Z 34006KT M02/M11 A3026 RMK A01 T10211109  RH  051%=      5-min Rain = 0
KVP1 120121Z 34006KT M02/M11 A3026 RMK A01 T10211109  RH  051%=      5-min Rain = 0
KVP1 120122Z 34006KT M02/M11 A3026 RMK A01 T10221109  RH  051%=      5-min Rain = 0
KVP1 120123Z 34007KT M02/M11 A3026 RMK A01 T10221109  RH  051%=      5-min Rain = 0
KVP1 120124Z 34007KT M02/M11 A3026 RMK A01 T10211108  RH  051%=      5-min Rain = 0
KVP1 120125Z 34007KT M02/M11 A3026 RMK A01 T10201108  RH  051%=      5-min Rain = 0
KVP1 120126Z 34007KT M02/M11 A3026 RMK A01 T10201108  RH  051%=      5-min Rain = 0
KVP1 120127Z 34007KT M02/M11 A3026 RMK A01 T10191107  RH  051%=      5-min Rain = 0
KVP1 120128Z 34007KT M02/M11 A3026 RMK A01 T10201108  RH  051%=      5-min Rain = 0
KVP1 120129Z 34007KT M02/M11 A3026 RMK A01 T10211108  RH  051%=      5-min Rain = 0
KVP1 120130Z 34007KT M02/M11 A3026 RMK A01 T10221109  RH  051%=      5-min Rain = 0
KVP1 120131Z 34007KT M02/M11 A3026 RMK A01 T10231109  RH  052%=      5-min Rain = 0
KVP1 120132Z 34007KT M02/M11 A3026 RMK A01 T10241110  RH  052%=      5-min Rain = 0
KVP1 120133Z 33006KT M03/M11 A3026 RMK A01 T10251110  RH  052%=      5-min Rain = 0
KVP1 120134Z 33007KT M03/M11 A3026 RMK A01 T10261111  RH  052%=      5-min Rain = 0
KVP1 120135Z 33006KT M03/M11 A3026 RMK A01 T10281112  RH  052%=      5-min Rain = 0
KVP1 120136Z 33007KT M03/M11 A3026 RMK A01 T10291112  RH  053%=      5-min Rain = 0
KVP1 120137Z 32006KT M03/M11 A3026 RMK A01 T10301112  RH  053%=      5-min Rain = 0
KVP1 120138Z 32006KT M03/M11 A3026 RMK A01 T10301112  RH  053%=      5-min Rain = 0
KVP1 120139Z 32006KT M03/M11 A3026 RMK A01 T10311112  RH  054%=      5-min Rain = 0
KVP1 120140Z 32006KT M03/M11 A3026 RMK A01 T10311111  RH  054%=      5-min Rain = 0
KVP1 120141Z 32006KT M03/M11 A3027 RMK A01 T10311111  RH  054%=      5-min Rain = 0
KVP1 120142Z 31005KT M03/M11 A3027 RMK A01 T10311110  RH  054%=      5-min Rain = 0
KVP1 120143Z 29004KT M03/M11 A3027 RMK A01 T10311111  RH  054%=      5-min Rain = 0
KVP1 120144Z 29004KT M03/M11 A3027 RMK A01 T10321112  RH  054%=      5-min Rain = 0
KVP1 120145Z 30004KT M03/M11 A3027 RMK A01 T10341113  RH  054%=      5-min Rain = 0
KVP1 120146Z 31004KT M04/M11 A3027 RMK A01 T10361114  RH  055%=      5-min Rain = 0
KVP1 120147Z 32004KT M04/M11 A3027 RMK A01 T10371112  RH  056%=      5-min Rain = 0
KVP1 120148Z 31004KT M04/M11 A3027 RMK A01 T10371111  RH  056%=      5-min Rain = 0
KVP1 120149Z 32004KT M04/M11 A3027 RMK A01 T10351110  RH  056%=      5-min Rain = 0
KVP1 120150Z 32004KT M04/M11 A3027 RMK A01 T10351110  RH  056%=      5-min Rain = 0
KVP1 120151Z 32004KT M03/M11 A3027 RMK A01 T10331109  RH  056%=      5-min Rain = 0
KVP1 120152Z 32004KT M03/M11 A3027 RMK A01 T10331108  RH  056%=      5-min Rain = 0
KVP1 120153Z 32004KT M03/M11 A3027 RMK A01 T10321108  RH  055%=      5-min Rain = 0
KVP1 120154Z 32005KT M03/M11 A3027 RMK A01 T10311108  RH  055%=      5-min Rain = 0
KVP1 120155Z 32005KT M03/M11 A3027 RMK A01 T10301108  RH  055%=      5-min Rain = 0
KVP1 120156Z 32004KT M03/M11 A3027 RMK A01 T10301109  RH  054%=      5-min Rain = 0
KVP1 120157Z 32004KT M03/M11 A3027 RMK A01 T10301109  RH  054%=      5-min Rain = 0
KVP1 120158Z 33005KT M03/M11 A3027 RMK A01 T10301109  RH  054%=      5-min Rain = 0
KVP1 120159Z 33005KT M03/M11 A3027 RMK A01 T10291108  RH  055%=      5-min Rain = 0
KVP1 120200Z 33005KT M03/M11 A3027 RMK A01 T10281107  RH  054%=      5-min Rain = 0
KVP1 120201Z 33005KT M03/M11 A3027 RMK A01 T10261106  RH  054%=      5-min Rain = 0
KVP1 120202Z 33005KT M03/M11 A3027 RMK A01 T10251106  RH  054%=      5-min Rain = 0
KVP1 120203Z 33005KT M02/M11 A3027 RMK A01 T10241106  RH  053%=      5-min Rain = 0
KVP1 120204Z 33005KT M02/M11 A3027 RMK A01 T10241107  RH  053%=      5-min Rain = 0
KVP1 120205Z 33006KT M02/M11 A3027 RMK A01 T10231107  RH  053%=      5-min Rain = 0
KVP1 120206Z 33006KT M02/M11 A3027 RMK A01 T10231107  RH  052%=      5-min Rain = 0
KVP1 120207Z 33006KT M02/M11 A3027 RMK A01 T10241108  RH  052%=      5-min Rain = 0
KVP1 120208Z 33006KT M03/M11 A3027 RMK A01 T10251110  RH  052%=      5-min Rain = 0
KVP1 120209Z 33006KT M03/M11 A3027 RMK A01 T10261110  RH  052%=      5-min Rain = 0
KVP1 120210Z 34007KT M03/M11 A3027 RMK A01 T10271111  RH  052%=      5-min Rain = 0
KVP1 120211Z 34007KT M03/M11 A3027 RMK A01 T10281111  RH  053%=      5-min Rain = 0
KVP1 120212Z 34007KT M03/M11 A3027 RMK A01 T10271109  RH  053%=      5-min Rain = 0
KVP1 120213Z 34007KT M03/M11 A3027 RMK A01 T10251108  RH  053%=      5-min Rain = 0
KVP1 120214Z 34007KT M02/M11 A3027 RMK A01 T10241107  RH  053%=      5-min Rain = 0
KVP1 120215Z 34008KT M02/M11 A3027 RMK A01 T10241109  RH  052%=      5-min Rain = 0
KVP1 120216Z 34007KT M03/M11 A3027 RMK A01 T10251110  RH  052%=      5-min Rain = 0
KVP1 120217Z 34007KT M03/M11 A3027 RMK A01 T10261111  RH  052%=      5-min Rain = 0
KVP1 120218Z 34007KT M03/M11 A3027 RMK A01 T10281111  RH  053%=      5-min Rain = 0
KVP1 120219Z 34007KT M03/M11 A3027 RMK A01 T10281111  RH  053%=      5-min Rain = 0
KVP1 120220Z 34007KT M03/M11 A3027 RMK A01 T10281110  RH  053%=      5-min Rain = 0
KVP1 120221Z 34007KT M03/M11 A3027 RMK A01 T10271109  RH  053%=      5-min Rain = 0
KVP1 120222Z 34007KT M03/M11 A3027 RMK A01 T10261108  RH  053%=      5-min Rain = 0
KVP1 120223Z 34006KT M02/M11 A3027 RMK A01 T10241107  RH  053%=      5-min Rain = 0
KVP1 120224Z 34006KT M02/M11 A3027 RMK A01 T10231107  RH  052%=      5-min Rain = 0
KVP1 120225Z 34006KT M02/M11 A3027 RMK A01 T10231108  RH  052%=      5-min Rain = 0
KVP1 120226Z 34006KT M02/M11 A3027 RMK A01 T10231109  RH  052%=      5-min Rain = 0
KVP1 120227Z 34006KT M02/M11 A3027 RMK A01 T10241110  RH  052%=      5-min Rain = 0
KVP1 120228Z 34006KT M03/M11 A3027 RMK A01 T10251110  RH  052%=      5-min Rain = 0
KVP1 120229Z 34005KT M03/M11 A3027 RMK A01 T10261110  RH  052%=      5-min Rain = 0
KVP1 120230Z 34005KT M03/M11 A3027 RMK A01 T10251109  RH  053%=      5-min Rain = 0
KVP1 120231Z 33005KT M03/M11 A3027 RMK A01 T10251109  RH  053%=      5-min Rain = 0
KVP1 120232Z 33006KT M03/M11 A3027 RMK A01 T10251109  RH  052%=      5-min Rain = 0
KVP1 120233Z 34006KT M03/M11 A3027 RMK A01 T10261110  RH  053%=      5-min Rain = 0
KVP1 120234Z 34006KT M03/M11 A3027 RMK A01 T10271110  RH  053%=      5-min Rain = 0
KVP1 120235Z 34006KT M03/M11 A3027 RMK A01 T10271110  RH  053%=      5-min Rain = 0
KVP1 120236Z 34006KT M03/M11 A3027 RMK A01 T10281110  RH  053%=      5-min Rain = 0
KVP1 120237Z 35006KT M03/M11 A3027 RMK A01 T10291108  RH  054%=      5-min Rain = 0
KVP1 120238Z 35006KT M03/M11 A3027 RMK A01 T10281107  RH  055%=      5-min Rain = 0
KVP1 120239Z 36006KT M03/M11 A3027 RMK A01 T10281107  RH  055%=      5-min Rain = 0
KVP1 120240Z 36007KT M03/M11 A3027 RMK A01 T10271106  RH  055%=      5-min Rain = 0
KVP1 120241Z 00007KT M03/M11 A3027 RMK A01 T10251105  RH  054%=      5-min Rain = 0
KVP1 120242Z 00007KT M02/M10 A3027 RMK A01 T10231103  RH  054%=      5-min Rain = 0
KVP1 120243Z 00007KT M02/M10 A3027 RMK A01 T10211103  RH  053%=      5-min Rain = 0
KVP1 120244Z 36007KT M02/M10 A3027 RMK A01 T10181102  RH  053%=      5-min Rain = 0
KVP1 120245Z 35006KT M02/M10 A3027 RMK A01 T10171102  RH  052%=      5-min Rain = 0
KVP1 120246Z 35005KT M02/M10 A3027 RMK A01 T10161103  RH  052%=      5-min Rain = 0
KVP1 120247Z 35005KT M02/M11 A3028 RMK A01 T10181106  RH  051%=      5-min Rain = 0
KVP1 120248Z 35005KT M02/M11 A3028 RMK A01 T10211109  RH  051%=      5-min Rain = 0
KVP1 120249Z 35006KT M02/M11 A3028 RMK A01 T10241110  RH  052%=      5-min Rain = 0
KVP1 120250Z 35006KT M03/M11 A3028 RMK A01 T10271112  RH  052%=      5-min Rain = 0
KVP1 120251Z 35006KT M03/M11 A3028 RMK A01 T10301112  RH  053%=      5-min Rain = 0
KVP1 120252Z 36006KT M03/M11 A3028 RMK A01 T10311112  RH  054%=      5-min Rain = 0
KVP1 120253Z 00007KT M03/M11 A3027 RMK A01 T10341114  RH  054%=      5-min Rain = 0
KVP1 120254Z 01007KT M03/M11 A3027 RMK A01 T10341111  RH  055%=      5-min Rain = 0
KVP1 120255Z 01007KT M03/M11 A3027 RMK A01 T10311107  RH  056%=      5-min Rain = 0
KVP1 120256Z 01006KT M03/M11 A3027 RMK A01 T10281106  RH  055%=      5-min Rain = 0
KVP1 120257Z 01006KT M03/M10 A3027 RMK A01 T10261104  RH  055%=      5-min Rain = 0
KVP1 120258Z 01005KT M02/M10 A3027 RMK A01 T10241104  RH  054%=      5-min Rain = 0
KVP1 120259Z 01004KT M02/M10 A3027 RMK A01 T10221103  RH  054%=      5-min Rain = 0
KVP1 120300Z 01005KT M02/M10 A3027 RMK A01 T10201103  RH  053%=      5-min Rain = 0
KVP1 120301Z 02005KT M02/M10 A3027 RMK A01 T10191103  RH  053%=      5-min Rain = 0
KVP1 120302Z 02005KT M02/M10 A3027 RMK A01 T10181104  RH  052%=      5-min Rain = 0
KVP1 120303Z 02005KT M02/M10 A3027 RMK A01 T10181104  RH  052%=      5-min Rain = 0
KVP1 120304Z 01004KT M02/M11 A3027 RMK A01 T10181105  RH  052%=      5-min Rain = 0
KVP1 120305Z 01003KT M02/M11 A3027 RMK A01 T10191106  RH  052%=      5-min Rain = 0
KVP1 120306Z 00003KT M02/M11 A3027 RMK A01 T10201106  RH  052%=      5-min Rain = 0
KVP1 120307Z 01003KT M02/M11 A3027 RMK A01 T10211105  RH  052%=      5-min Rain = 0
KVP1 120308Z 01004KT M02/M10 A3027 RMK A01 T10201104  RH  053%=      5-min Rain = 0
KVP1 120309Z 02004KT M02/M10 A3027 RMK A01 T10201104  RH  052%=      5-min Rain = 0
KVP1 120310Z 03006KT M02/M11 A3027 RMK A01 T10201105  RH  052%=      5-min Rain = 0
KVP1 120311Z 03007KT M02/M11 A3026 RMK A01 T10201105  RH  052%=      5-min Rain = 0
KVP1 120312Z 04008KT M02/M11 A3026 RMK A01 T10221109  RH  051%=      5-min Rain = 0
KVP1 120313Z 04007KT M03/M12 A3026 RMK A01 T10291115  RH  052%=      5-min Rain = 0
KVP1 120314Z 04007KT M03/M11 A3026 RMK A01 T10341114  RH  054%=      5-min Rain = 0
KVP1 120315Z 03006KT M03/M11 A3026 RMK A01 T10341110  RH  056%=      5-min Rain = 0
KVP1 120316Z 04005KT M03/M11 A3027 RMK A01 T10321107  RH  057%=      5-min Rain = 0
KVP1 120317Z 04005KT M03/M11 A3027 RMK A01 T10301105  RH  056%=      5-min Rain = 0
KVP1 120318Z 04005KT M03/M11 A3027 RMK A01 T10291105  RH  056%=      5-min Rain = 0
KVP1 120319Z 05004KT M03/M11 A3027 RMK A01 T10281106  RH  055%=      5-min Rain = 0
KVP1 120320Z 05004KT M03/M11 A3027 RMK A01 T10281106  RH  055%=      5-min Rain = 0
KVP1 120321Z 05005KT M03/M11 A3027 RMK A01 T10281107  RH  055%=      5-min Rain = 0
KVP1 120322Z 05005KT M03/M11 A3027 RMK A01 T10291107  RH  055%=      5-min Rain = 0
KVP1 120323Z 04005KT M03/M11 A3027 RMK A01 T10301109  RH  055%=      5-min Rain = 0
KVP1 120324Z 04005KT M03/M11 A3027 RMK A01 T10311109  RH  055%=      5-min Rain = 0
KVP1 120325Z 05004KT M03/M11 A3027 RMK A01 T10321108  RH  056%=      5-min Rain = 0
KVP1 120326Z 04004KT M03/M11 A3027 RMK A01 T10321108  RH  056%=      5-min Rain = 0
KVP1 120327Z 04004KT M03/M11 A3028 RMK A01 T10311107  RH  056%=      5-min Rain = 0
KVP1 120328Z 04004KT M03/M11 A3028 RMK A01 T10301106  RH  056%=      5-min Rain = 0
KVP1 120329Z 03005KT M03/M11 A3028 RMK A01 T10291105  RH  056%=      5-min Rain = 0
KVP1 120330Z 03005KT M03/M10 A3028 RMK A01 T10271103  RH  056%=      5-min Rain = 0
KVP1 120331Z 03006KT M02/M10 A3028 RMK A01 T10241103  RH  055%=      5-min Rain = 0
KVP1 120332Z 03006KT M02/M10 A3027 RMK A01 T10221102  RH  054%=      5-min Rain = 0
KVP1 120333Z 03007KT M02/M10 A3027 RMK A01 T10201102  RH  053%=      5-min Rain = 0
KVP1 120334Z 04007KT M02/M10 A3027 RMK A01 T10201104  RH  053%=      5-min Rain = 0
KVP1 120335Z 04007KT M02/M11 A3027 RMK A01 T10241108  RH  052%=      5-min Rain = 0
KVP1 120336Z 04006KT M03/M11 A3027 RMK A01 T10281109  RH  053%=      5-min Rain = 0
KVP1 120337Z 03005KT M03/M11 A3027 RMK A01 T10291108  RH  055%=      5-min Rain = 0
KVP1 120338Z 03004KT M03/M11 A3027 RMK A01 T10291106  RH  055%=      5-min Rain = 0
KVP1 120339Z 02003KT M03/M10 A3027 RMK A01 T10281104  RH  056%=      5-min Rain = 0
KVP1 120340Z 02002KT M03/M10 A3028 RMK A01 T10271104  RH  055%=      5-min Rain = 0
KVP1 120341Z 03002KT M03/M11 A3028 RMK A01 T10291109  RH  054%=      5-min Rain = 0
KVP1 120342Z 05003KT M03/M11 A3027 RMK A01 T10341114  RH  054%=      5-min Rain = 0
KVP1 120343Z 05004KT M04/M12 A3027 RMK A01 T10381115  RH  055%=      5-min Rain = 0
KVP1 120344Z 04006KT M04/M11 A3027 RMK A01 T10391111  RH  057%=      5-min Rain = 0
KVP1 120345Z 04005KT M04/M11 A3027 RMK A01 T10361107  RH  058%=      5-min Rain = 0
KVP1 120346Z 04005KT M03/M11 A3027 RMK A01 T10341106  RH  057%=      5-min Rain = 0
KVP1 120347Z 04004KT M03/M11 A3027 RMK A01 T10341107  RH  057%=      5-min Rain = 0
KVP1 120348Z 04004KT M03/M11 A3027 RMK A01 T10341107  RH  057%=      5-min Rain = 0
KVP1 120349Z 04003KT M03/M11 A3027 RMK A01 T10341107  RH  057%=      5-min Rain = 0
KVP1 120350Z 05003KT M04/M11 A3027 RMK A01 T10351108  RH  057%=      5-min Rain = 0
KVP1 120351Z 05003KT M04/M11 A3027 RMK A01 T10351107  RH  057%=      5-min Rain = 0
KVP1 120352Z 05003KT M04/M11 A3027 RMK A01 T10351107  RH  058%=      5-min Rain = 0
KVP1 120353Z 05003KT M04/M11 A3027 RMK A01 T10351106  RH  058%=      5-min Rain = 0
KVP1 120354Z 05003KT M04/M11 A3027 RMK A01 T10351106  RH  058%=      5-min Rain = 0
KVP1 120355Z 05003KT M04/M11 A3027 RMK A01 T10351106  RH  058%=      5-min Rain = 0
KVP1 120356Z 05003KT M04/M11 A3027 RMK A01 T10351107  RH  058%=      5-min Rain = 0
KVP1 120357Z 06003KT M04/M11 A3027 RMK A01 T10361107  RH  058%=      5-min Rain = 0
KVP1 120358Z 05003KT M04/M11 A3027 RMK A01 T10361107  RH  058%=      5-min Rain = 0
KVP1 120359Z 05003KT M04/M11 A3027 RMK A01 T10361107  RH  058%=      5-min Rain = 0
KVP1 120400Z 05003KT M04/M11 A3027 RMK A01 T10361107  RH  058%=      5-min Rain = 0
KVP1 120401Z 04002KT M04/M11 A3028 RMK A01 T10371109  RH  057%=      5-min Rain = 0
KVP1 120402Z 03002KT M04/M11 A3028 RMK A01 T10401111  RH  058%=      5-min Rain = 0
KVP1 120403Z 03002KT M04/M11 A3028 RMK A01 T10431114  RH  058%=      5-min Rain = 0
KVP1 120404Z 03002KT M05/M12 A3028 RMK A01 T10471115  RH  059%=      5-min Rain = 0
KVP1 120405Z 03003KT M05/M11 A3028 RMK A01 T10481113  RH  060%=      5-min Rain = 0
KVP1 120406Z 03003KT M05/M11 A3028 RMK A01 T10471111  RH  061%=      5-min Rain = 0
KVP1 120407Z 03004KT M05/M11 A3027 RMK A01 T10471110  RH  061%=      5-min Rain = 0
KVP1 120408Z 03004KT M05/M11 A3027 RMK A01 T10451110  RH  061%=      5-min Rain = 0
KVP1 120409Z 03004KT M05/M11 A3027 RMK A01 T10461112  RH  060%=      5-min Rain = 0
KVP1 120410Z 02004KT M05/M11 A3027 RMK A01 T10461111  RH  060%=      5-min Rain = 0
KVP1 120411Z 02004KT M05/M11 A3027 RMK A01 T10451110  RH  060%=      5-min Rain = 0
KVP1 120412Z 02004KT M04/M11 A3028 RMK A01 T10431109  RH  060%=      5-min Rain = 0
KVP1 120413Z 03003KT M04/M11 A3028 RMK A01 T10411107  RH  060%=      5-min Rain = 0
KVP1 120414Z 03003KT M04/M11 A3028 RMK A01 T10401107  RH  060%=      5-min Rain = 0
KVP1 120415Z 02003KT M04/M11 A3028 RMK A01 T10401107  RH  059%=      5-min Rain = 0
KVP1 120416Z 02002KT M04/M11 A3028 RMK A01 T10401108  RH  059%=      5-min Rain = 0
KVP1 120417Z 03002KT M04/M11 A3028 RMK A01 T10431114  RH  058%=      5-min Rain = 0
KVP1 120418Z 03003KT M05/M12 A3028 RMK A01 T10491118  RH  058%=      5-min Rain = 0
KVP1 120419Z 04003KT M05/M12 A3028 RMK A01 T10511115  RH  061%=      5-min Rain = 0
KVP1 120420Z 03004KT M05/M12 A3028 RMK A01 T10531117  RH  061%=      5-min Rain = 0
KVP1 120421Z 03004KT M05/M11 A3028 RMK A01 T10531114  RH  062%=      5-min Rain = 0
KVP1 120422Z 03004KT M05/M11 A3028 RMK A01 T10511110  RH  063%=      5-min Rain = 0
KVP1 120423Z 03004KT M05/M11 A3028 RMK A01 T10481108  RH  063%=      5-min Rain = 0
KVP1 120424Z 03004KT M05/M11 A3028 RMK A01 T10471107  RH  063%=      5-min Rain = 0
KVP1 120425Z 03004KT M05/M11 A3028 RMK A01 T10451108  RH  062%=      5-min Rain = 0
KVP1 120426Z 03004KT M04/M11 A3027 RMK A01 T10431106  RH  061%=      5-min Rain = 0
KVP1 120427Z 03005KT M04/M10 A3027 RMK A01 T10391103  RH  061%=      5-min Rain = 0
KVP1 120428Z 03004KT M04/M10 A3027 RMK A01 T10361103  RH  060%=      5-min Rain = 0
KVP1 120429Z 04005KT M04/M10 A3027 RMK A01 T10351104  RH  059%=      5-min Rain = 0
KVP1 120430Z 04004KT M03/M11 A3027 RMK A01 T10341106  RH  058%=      5-min Rain = 0
KVP1 120431Z 04004KT M04/M11 A3028 RMK A01 T10351107  RH  057%=      5-min Rain = 0
KVP1 120432Z 04003KT M04/M11 A3028 RMK A01 T10351107  RH  057%=      5-min Rain = 0
KVP1 120433Z 04003KT M04/M11 A3028 RMK A01 T10351107  RH  058%=      5-min Rain = 0
KVP1 120434Z 04003KT M04/M11 A3028 RMK A01 T10351106  RH  058%=      5-min Rain = 0
KVP1 120435Z 03003KT M03/M11 A3028 RMK A01 T10341105  RH  058%=      5-min Rain = 0
KVP1 120436Z 03003KT M03/M11 A3028 RMK A01 T10341105  RH  058%=      5-min Rain = 0
KVP1 120437Z 03002KT M03/M11 A3028 RMK A01 T10331106  RH  057%=      5-min Rain = 0
KVP1 120438Z 03002KT M04/M11 A3028 RMK A01 T10371112  RH  056%=      5-min Rain = 0
KVP1 120439Z 03002KT M04/M12 A3028 RMK A01 T10431115  RH  057%=      5-min Rain = 0
KVP1 120440Z 03002KT M05/M11 A3028 RMK A01 T10461114  RH  059%=      5-min Rain = 0
KVP1 120441Z 03001KT M05/M12 A3028 RMK A01 T10501118  RH  059%=      5-min Rain = 0
KVP1 120442Z 03002KT M06/M12 A3028 RMK A01 T10561121  RH  060%=      5-min Rain = 0
KVP1 120443Z 03002KT M06/M12 A3028 RMK A01 T10571118  RH  062%=      5-min Rain = 0
KVP1 120444Z 02001KT M06/M12 A3028 RMK A01 T10611123  RH  061%=      5-min Rain = 0
KVP1 120445Z 00001KT M07/M13 A3028 RMK A01 T10681129  RH  062%=      5-min Rain = 0
KVP1 120446Z 00001KT M07/M13 A3028 RMK A01 T10721130  RH  064%=      5-min Rain = 0
KVP1 120447Z 00001KT M08/M13 A3028 RMK A01 T10761132  RH  064%=      5-min Rain = 0
KVP1 120448Z 00001KT M08/M13 A3028 RMK A01 T10791133  RH  065%=      5-min Rain = 0
KVP1 120449Z 00001KT M08/M13 A3028 RMK A01 T10811134  RH  066%=      5-min Rain = 0
KVP1 120450Z 00001KT M08/M13 A3028 RMK A01 T10821134  RH  066%=      5-min Rain = 0
KVP1 120451Z 00001KT M08/M13 A3028 RMK A01 T10831134  RH  066%=      5-min Rain = 0
KVP1 120452Z 00002KT M08/M13 A3028 RMK A01 T10831134  RH  067%=      5-min Rain = 0
KVP1 120453Z 00002KT M08/M13 A3028 RMK A01 T10831134  RH  067%=      5-min Rain = 0
KVP1 120454Z 01003KT M08/M13 A3028 RMK A01 T10831134  RH  067%=      5-min Rain = 0
KVP1 120455Z 01002KT M08/M13 A3028 RMK A01 T10831133  RH  067%=      5-min Rain = 0
KVP1 120456Z 00002KT M08/M13 A3028 RMK A01 T10831133  RH  067%=      5-min Rain = 0
KVP1 120457Z 00002KT M08/M13 A3028 RMK A01 T10821132  RH  067%=      5-min Rain = 0
KVP1 120458Z 01002KT M08/M13 A3028 RMK A01 T10811131  RH  067%=      5-min Rain = 0
KVP1 120459Z 01002KT M08/M13 A3028 RMK A01 T10801130  RH  067%=      5-min Rain = 0
KVP1 120500Z 01002KT M08/M13 A3028 RMK A01 T10781130  RH  066%=      5-min Rain = 0
KVP1 120501Z 00001KT M08/M13 A3028 RMK A01 T10761129  RH  066%=      5-min Rain = 0
KVP1 120502Z 00002KT M07/M13 A3028 RMK A01 T10741127  RH  066%=      5-min Rain = 0
KVP1 120503Z 01002KT M07/M13 A3028 RMK A01 T10711125  RH  065%=      5-min Rain = 0
KVP1 120504Z 01002KT M07/M13 A3028 RMK A01 T10711129  RH  063%=      5-min Rain = 0
KVP1 120505Z 01002KT M07/M13 A3028 RMK A01 T10721130  RH  063%=      5-min Rain = 0
KVP1 120506Z 01002KT M07/M13 A3028 RMK A01 T10731131  RH  063%=      5-min Rain = 0
KVP1 120507Z 01003KT M07/M13 A3028 RMK A01 T10741132  RH  063%=      5-min Rain = 0
KVP1 120508Z 01003KT M08/M13 A3028 RMK A01 T10751132  RH  064%=      5-min Rain = 0
KVP1 120509Z 02003KT M08/M13 A3028 RMK A01 T10751129  RH  065%=      5-min Rain = 0
KVP1 120510Z 02004KT M07/M13 A3028 RMK A01 T10731126  RH  066%=      5-min Rain = 0
KVP1 120511Z 02004KT M07/M12 A3028 RMK A01 T10711124  RH  066%=      5-min Rain = 0
KVP1 120512Z 02004KT M07/M12 A3028 RMK A01 T10691122  RH  066%=      5-min Rain = 0
KVP1 120513Z 02004KT M07/M12 A3028 RMK A01 T10661120  RH  066%=      5-min Rain = 0
KVP1 120514Z 02004KT M07/M12 A3028 RMK A01 T10651119  RH  065%=      5-min Rain = 0
KVP1 120515Z 02004KT M06/M12 A3028 RMK A01 T10631118  RH  065%=      5-min Rain = 0
KVP1 120516Z 02004KT M06/M12 A3028 RMK A01 T10621117  RH  065%=      5-min Rain = 0
KVP1 120517Z 03004KT M06/M12 A3027 RMK A01 T10601116  RH  065%=      5-min Rain = 0
KVP1 120518Z 03004KT M06/M12 A3027 RMK A01 T10591115  RH  065%=      5-min Rain = 0
KVP1 120519Z 03004KT M06/M11 A3028 RMK A01 T10581114  RH  064%=      5-min Rain = 0
KVP1 120520Z 02003KT M06/M11 A3028 RMK A01 T10561112  RH  065%=      5-min Rain = 0
KVP1 120521Z 02004KT M05/M11 A3028 RMK A01 T10531110  RH  064%=      5-min Rain = 0
KVP1 120522Z 02004KT M05/M11 A3028 RMK A01 T10501108  RH  064%=      5-min Rain = 0
KVP1 120523Z 02004KT M05/M11 A3028 RMK A01 T10471107  RH  063%=      5-min Rain = 0
KVP1 120524Z 02004KT M05/M11 A3028 RMK A01 T10451107  RH  062%=      5-min Rain = 0
KVP1 120525Z 02004KT M04/M11 A3028 RMK A01 T10441107  RH  061%=      5-min Rain = 0
KVP1 120526Z 02004KT M04/M11 A3028 RMK A01 T10431108  RH  061%=      5-min Rain = 0
KVP1 120527Z 02004KT M04/M11 A3027 RMK A01 T10421109  RH  060%=      5-min Rain = 0
KVP1 120528Z 02005KT M04/M11 A3027 RMK A01 T10431110  RH  060%=      5-min Rain = 0
KVP1 120529Z 02005KT M04/M11 A3027 RMK A01 T10441111  RH  060%=      5-min Rain = 0
KVP1 120530Z 03004KT M05/M11 A3027 RMK A01 T10451111  RH  060%=      5-min Rain = 0
KVP1 120531Z 02004KT M05/M11 A3027 RMK A01 T10451109  RH  061%=      5-min Rain = 0
KVP1 120532Z 02004KT M04/M11 A3027 RMK A01 T10441109  RH  060%=      5-min Rain = 0
KVP1 120533Z 02004KT M04/M11 A3027 RMK A01 T10441109  RH  060%=      5-min Rain = 0
KVP1 120534Z 02004KT M04/M11 A3027 RMK A01 T10441110  RH  060%=      5-min Rain = 0
KVP1 120535Z 02004KT M05/M11 A3027 RMK A01 T10461112  RH  060%=      5-min Rain = 0
KVP1 120536Z 02004KT M05/M11 A3027 RMK A01 T10481113  RH  060%=      5-min Rain = 0
KVP1 120537Z 02004KT M05/M11 A3027 RMK A01 T10491114  RH  061%=      5-min Rain = 0
KVP1 120538Z 02004KT M05/M11 A3027 RMK A01 T10501113  RH  061%=      5-min Rain = 0
KVP1 120539Z 02004KT M05/M11 A3027 RMK A01 T10511112  RH  062%=      5-min Rain = 0
KVP1 120540Z 02004KT M05/M11 A3027 RMK A01 T10511112  RH  062%=      5-min Rain = 0
KVP1 120541Z 02003KT M05/M11 A3027 RMK A01 T10511113  RH  062%=      5-min Rain = 0
KVP1 120542Z 01003KT M05/M11 A3027 RMK A01 T10521112  RH  062%=      5-min Rain = 0
KVP1 120543Z 01003KT M05/M11 A3027 RMK A01 T10521112  RH  062%=      5-min Rain = 0
KVP1 120544Z 01003KT M05/M11 A3027 RMK A01 T10521112  RH  063%=      5-min Rain = 0
KVP1 120545Z 01003KT M05/M11 A3027 RMK A01 T10511112  RH  063%=      5-min Rain = 0
KVP1 120546Z 02003KT M05/M11 A3027 RMK A01 T10521112  RH  063%=      5-min Rain = 0
KVP1 120547Z 02004KT M05/M11 A3027 RMK A01 T10521112  RH  063%=      5-min Rain = 0
KVP1 120548Z 03004KT M05/M11 A3027 RMK A01 T10521113  RH  062%=      5-min Rain = 0
KVP1 120549Z 03004KT M05/M11 A3026 RMK A01 T10521112  RH  063%=      5-min Rain = 0
KVP1 120550Z 03004KT M05/M11 A3026 RMK A01 T10511111  RH  063%=      5-min Rain = 0
KVP1 120551Z 03004KT M05/M11 A3026 RMK A01 T10511110  RH  063%=      5-min Rain = 0
KVP1 120552Z 03003KT M05/M11 A3027 RMK A01 T10501109  RH  063%=      5-min Rain = 0
KVP1 120553Z 03003KT M05/M11 A3027 RMK A01 T10491110  RH  062%=      5-min Rain = 0
KVP1 120554Z 03003KT M05/M11 A3027 RMK A01 T10501111  RH  062%=      5-min Rain = 0
KVP1 120555Z 02003KT M05/M11 A3027 RMK A01 T10521114  RH  062%=      5-min Rain = 0
KVP1 120556Z 02003KT M05/M12 A3026 RMK A01 T10531115  RH  062%=      5-min Rain = 0
KVP1 120557Z 03003KT M06/M12 A3026 RMK A01 T10551115  RH  062%=      5-min Rain = 0
KVP1 120558Z 02003KT M06/M12 A3026 RMK A01 T10561115  RH  063%=      5-min Rain = 0
KVP1 120559Z 02003KT M06/M12 A3026 RMK A01 T10571115  RH  063%=      5-min Rain = 0

Page generated in 0.1553 seconds.